PWSweather.com
Personal Weather Stations
Station Observations
KNJEWING3
Ewing, NJ 08638

Ewing, NJ 08638

Lat: 40.25193, Lon: -74.77511

Elevation: 106

Station Type: Oregon Scientific WMR968 / SRS100 Solar Radiation Shield. Rain Data At www.cocorahs.org (NJ-MC-11)

Latest ConditionsUpdated 8:54:00 AM EST Friday, Jan 30, 2015
Currently Today's Max Today's Min Today's Average
Temperature 32.1°F0.1°C 32.1°F0.1°C 29.4°F-1.4°C 30.4°F-0.9°C
Dew Point 16.9°F-8.4°C 17.7°F-7.9°C 14.8°F-9.6°C 16.8°F-8.4°C
Winds 5.9 mph NNW9.5 kmh NNW 9.9 mph NW15.9 kmh NW - 1.5 mph 2.4 kmh
Wind Gusts 6.4 mph10.3 kmh 12.1 mph19.5 kmh - -
Humidity 53% 58% 53% 56%
Pressure 29.97 in1014.9 mb 30.06 in1017.9 mb 29.91 in1012.9 mb -
Hour Temp Dew Point Humidity Winds Wind Gusts Pressure Precip Precip Rate Daily Precip Total
08:54 AM 32.1°F0.1°C 16.9°F-8.4°C 53% 5.9 mph NNW9.5 kmh NNW 6.4 mph10.3 kmh 29.97 in1014.9 mb 0.00 in0.0 mm 0.00 in/hr0.0 mm/hr 0.00 in0.0 mm
08:53 AM 32.1°F0.1°C 16.9°F-8.4°C 53% 5.4 mph NNW8.7 kmh NNW 7.0 mph11.3 kmh 29.97 in1014.9 mb 0.00 in0.0 mm 0.00 in/hr0.0 mm/hr 0.00 in0.0 mm
08:52 AM 32.1°F0.1°C 16.9°F-8.4°C 53% 4.8 mph N7.7 kmh N 7.0 mph11.3 kmh 29.97 in1014.9 mb 0.00 in0.0 mm 0.00 in/hr0.0 mm/hr 0.00 in0.0 mm
08:51 AM 32.1°F0.1°C 16.9°F-8.4°C 53% 4.3 mph N6.9 kmh N 7.0 mph11.3 kmh 29.97 in1014.9 mb 0.00 in0.0 mm 0.00 in/hr0.0 mm/hr 0.00 in0.0 mm
08:50 AM 32.1°F0.1°C 16.9°F-8.4°C 53% 4.3 mph NNW6.9 kmh NNW 7.0 mph11.3 kmh 29.97 in1014.9 mb 0.00 in0.0 mm 0.00 in/hr0.0 mm/hr 0.00 in0.0 mm
08:49 AM 32.1°F0.1°C 16.9°F-8.4°C 53% 2.7 mph 4.3 kmh 9.7 mph15.6 kmh 29.97 in1014.9 mb 0.00 in0.0 mm 0.00 in/hr0.0 mm/hr 0.00 in0.0 mm
08:48 AM 32.1°F0.1°C 16.9°F-8.4°C 53% 3.8 mph N6.1 kmh N 9.7 mph15.6 kmh 29.97 in1014.9 mb 0.00 in0.0 mm 0.00 in/hr0.0 mm/hr 0.00 in0.0 mm
08:47 AM 32.1°F0.1°C 16.9°F-8.4°C 53% 4.8 mph NNW7.7 kmh NNW 9.7 mph15.6 kmh 29.97 in1014.9 mb 0.00 in0.0 mm 0.00 in/hr0.0 mm/hr 0.00 in0.0 mm
08:46 AM 31.9°F-0.1°C 16.7°F-8.5°C 53% 6.4 mph NNW10.3 kmh NNW 9.7 mph15.6 kmh 29.97 in1014.9 mb 0.00 in0.0 mm 0.00 in/hr0.0 mm/hr 0.00 in0.0 mm
08:45 AM 31.9°F-0.1°C 16.7°F-8.5°C 53% 3.2 mph NW5.1 kmh NW 9.7 mph15.6 kmh 29.97 in1014.9 mb 0.00 in0.0 mm 0.00 in/hr0.0 mm/hr 0.00 in0.0 mm
08:44 AM 31.9°F-0.1°C 16.7°F-8.5°C 53% 4.8 mph W7.7 kmh W 12.1 mph19.5 kmh 29.97 in1014.9 mb 0.00 in0.0 mm 0.00 in/hr0.0 mm/hr 0.00 in0.0 mm
08:43 AM 31.9°F-0.1°C 16.7°F-8.5°C 53% 4.3 mph NW6.9 kmh NW 12.1 mph19.5 kmh 29.97 in1014.9 mb 0.00 in0.0 mm 0.00 in/hr0.0 mm/hr 0.00 in0.0 mm
08:42 AM 31.9°F-0.1°C 16.7°F-8.5°C 53% 6.4 mph WNW10.3 kmh WNW 12.1 mph19.5 kmh 29.97 in1014.9 mb 0.00 in0.0 mm 0.00 in/hr0.0 mm/hr 0.00 in0.0 mm
08:41 AM 31.9°F-0.1°C 17.2°F-8.2°C 54% 3.8 mph WNW6.1 kmh WNW 12.1 mph19.5 kmh 29.97 in1014.9 mb 0.00 in0.0 mm 0.00 in/hr0.0 mm/hr 0.00 in0.0 mm
08:40 AM 31.9°F-0.1°C 17.2°F-8.2°C 54% 3.8 mph WNW6.1 kmh WNW 12.1 mph19.5 kmh 29.97 in1014.9 mb 0.00 in0.0 mm 0.00 in/hr0.0 mm/hr 0.00 in0.0 mm
08:39 AM 31.7°F-0.2°C 17.0°F-8.3°C 54% 4.8 mph NW7.7 kmh NW 12.1 mph19.5 kmh 29.97 in1014.9 mb 0.00 in0.0 mm 0.00 in/hr0.0 mm/hr 0.00 in0.0 mm
08:38 AM 31.7°F-0.2°C 17.0°F-8.3°C 54% 5.9 mph N9.5 kmh N 12.1 mph19.5 kmh 29.97 in1014.9 mb 0.00 in0.0 mm 0.00 in/hr0.0 mm/hr 0.00 in0.0 mm
08:37 AM 31.7°F-0.2°C 17.0°F-8.3°C 54% 4.3 mph NNW6.9 kmh NNW 7.0 mph11.3 kmh 29.97 in1014.9 mb 0.00 in0.0 mm 0.00 in/hr0.0 mm/hr 0.00 in0.0 mm
08:36 AM 31.7°F-0.2°C 17.0°F-8.3°C 54% 3.2 mph WNW5.1 kmh WNW 7.0 mph11.3 kmh 29.97 in1014.9 mb 0.00 in0.0 mm 0.00 in/hr0.0 mm/hr 0.00 in0.0 mm
08:35 AM 31.7°F-0.2°C 17.0°F-8.3°C 54% 3.8 mph NW6.1 kmh NW 7.0 mph11.3 kmh 29.97 in1014.9 mb 0.00 in0.0 mm 0.00 in/hr0.0 mm/hr 0.00 in0.0 mm
08:34 AM 31.7°F-0.2°C 17.0°F-8.3°C 54% 3.8 mph NW6.1 kmh NW 7.0 mph11.3 kmh 29.97 in1014.9 mb 0.00 in0.0 mm 0.00 in/hr0.0 mm/hr 0.00 in0.0 mm
08:33 AM 31.7°F-0.2°C 17.0°F-8.3°C 54% 3.8 mph NW6.1 kmh NW 7.0 mph11.3 kmh 29.97 in1014.9 mb 0.00 in0.0 mm 0.00 in/hr0.0 mm/hr 0.00 in0.0 mm
08:32 AM 31.7°F-0.2°C 17.0°F-8.3°C 54% 4.8 mph NNW7.7 kmh NNW 7.5 mph12.1 kmh 29.97 in1014.9 mb 0.00 in0.0 mm 0.00 in/hr0.0 mm/hr 0.00 in0.0 mm
08:31 AM 31.7°F-0.2°C 17.0°F-8.3°C 54% 4.8 mph NNW7.7 kmh NNW 7.5 mph12.1 kmh 29.97 in1014.9 mb 0.00 in0.0 mm 0.00 in/hr0.0 mm/hr 0.00 in0.0 mm
08:30 AM 31.7°F-0.2°C 17.0°F-8.3°C 54% 3.2 mph NW5.1 kmh NW 7.5 mph12.1 kmh 29.97 in1014.9 mb 0.00 in0.0 mm 0.00 in/hr0.0 mm/hr 0.00 in0.0 mm
08:29 AM 31.7°F-0.2°C 17.0°F-8.3°C 54% 4.8 mph NW7.7 kmh NW 7.5 mph12.1 kmh 29.97 in1014.9 mb 0.00 in0.0 mm 0.00 in/hr0.0 mm/hr 0.00 in0.0 mm
08:28 AM 31.7°F-0.2°C 17.0°F-8.3°C 54% 3.2 mph NW5.1 kmh NW 7.5 mph12.1 kmh 29.97 in1014.9 mb 0.00 in0.0 mm 0.00 in/hr0.0 mm/hr 0.00 in0.0 mm
08:27 AM 31.5°F-0.3°C 16.8°F-8.4°C 54% 4.8 mph NNW7.7 kmh NNW 7.5 mph12.1 kmh 29.97 in1014.9 mb 0.00 in0.0 mm 0.00 in/hr0.0 mm/hr 0.00 in0.0 mm
08:26 AM 31.5°F-0.3°C 16.8°F-8.4°C 54% 3.8 mph NNW6.1 kmh NNW 7.5 mph12.1 kmh 29.97 in1014.9 mb 0.00 in0.0 mm 0.00 in/hr0.0 mm/hr 0.00 in0.0 mm
08:25 AM 31.5°F-0.3°C 16.8°F-8.4°C 54% 7.5 mph WNW12.1 kmh WNW 7.5 mph12.1 kmh 29.97 in1014.9 mb 0.00 in0.0 mm 0.00 in/hr0.0 mm/hr 0.00 in0.0 mm
08:24 AM 31.5°F-0.3°C 16.8°F-8.4°C 54% 4.3 mph WNW6.9 kmh WNW 7.5 mph12.1 kmh 29.97 in1014.9 mb 0.00 in0.0 mm 0.00 in/hr0.0 mm/hr 0.00 in0.0 mm
08:23 AM 31.5°F-0.3°C 16.8°F-8.4°C 54% 4.8 mph NNW7.7 kmh NNW 7.5 mph12.1 kmh 29.97 in1014.9 mb 0.00 in0.0 mm 0.00 in/hr0.0 mm/hr 0.00 in0.0 mm
08:22 AM 31.5°F-0.3°C 16.8°F-8.4°C 54% 3.8 mph NW6.1 kmh NW 7.5 mph12.1 kmh 29.97 in1014.9 mb 0.00 in0.0 mm 0.00 in/hr0.0 mm/hr 0.00 in0.0 mm
08:21 AM 31.5°F-0.3°C 16.8°F-8.4°C 54% 4.8 mph NW7.7 kmh NW 7.5 mph12.1 kmh 29.97 in1014.9 mb 0.00 in0.0 mm 0.00 in/hr0.0 mm/hr 0.00 in0.0 mm
08:20 AM 31.4°F-0.3°C 16.7°F-8.5°C 54% 6.4 mph N10.3 kmh N 7.5 mph12.1 kmh 29.97 in1014.9 mb 0.00 in0.0 mm 0.00 in/hr0.0 mm/hr 0.00 in0.0 mm
08:19 AM 31.4°F-0.3°C 16.7°F-8.5°C 54% 4.3 mph NNW6.9 kmh NNW 8.1 mph13.0 kmh 29.97 in1014.9 mb 0.00 in0.0 mm 0.00 in/hr0.0 mm/hr 0.00 in0.0 mm
08:18 AM 31.4°F-0.3°C 16.7°F-8.5°C 54% 7.5 mph NW12.1 kmh NW 8.1 mph13.0 kmh 29.97 in1014.9 mb 0.00 in0.0 mm 0.00 in/hr0.0 mm/hr 0.00 in0.0 mm
08:17 AM 31.4°F-0.3°C 16.7°F-8.5°C 54% 3.8 mph W6.1 kmh W 8.1 mph13.0 kmh 29.97 in1014.9 mb 0.00 in0.0 mm 0.00 in/hr0.0 mm/hr 0.00 in0.0 mm
08:16 AM 31.4°F-0.3°C 17.1°F-8.3°C 55% 6.4 mph NNW10.3 kmh NNW 8.1 mph13.0 kmh 29.97 in1014.9 mb 0.00 in0.0 mm 0.00 in/hr0.0 mm/hr 0.00 in0.0 mm
08:15 AM 31.4°F-0.3°C 17.1°F-8.3°C 55% 7.5 mph 12.1 kmh 8.1 mph13.0 kmh 29.97 in1014.9 mb 0.00 in0.0 mm 0.00 in/hr0.0 mm/hr 0.00 in0.0 mm
08:14 AM 31.2°F-0.4°C 16.9°F-8.4°C 55% 5.9 mph NNW9.5 kmh NNW 8.1 mph13.0 kmh 29.97 in1014.9 mb 0.00 in0.0 mm 0.00 in/hr0.0 mm/hr 0.00 in0.0 mm
08:13 AM 31.2°F-0.4°C 16.9°F-8.4°C 55% 6.4 mph NNW10.3 kmh NNW 8.1 mph13.0 kmh 29.97 in1014.9 mb 0.00 in0.0 mm 0.00 in/hr0.0 mm/hr 0.00 in0.0 mm
08:12 AM 31.2°F-0.4°C 16.9°F-8.4°C 55% 4.3 mph N6.9 kmh N 7.0 mph11.3 kmh 29.97 in1014.9 mb 0.00 in0.0 mm 0.00 in/hr0.0 mm/hr 0.00 in0.0 mm
08:11 AM 31.2°F-0.4°C 16.9°F-8.4°C 55% 3.8 mph NW6.1 kmh NW 7.0 mph11.3 kmh 29.97 in1014.9 mb 0.00 in0.0 mm 0.00 in/hr0.0 mm/hr 0.00 in0.0 mm
08:10 AM 31.2°F-0.4°C 16.9°F-8.4°C 55% 6.4 mph 10.3 kmh 7.0 mph11.3 kmh 29.97 in1014.9 mb 0.00 in0.0 mm 0.00 in/hr0.0 mm/hr 0.00 in0.0 mm
08:09 AM 31.2°F-0.4°C 16.9°F-8.4°C 55% 7.0 mph WNW11.3 kmh WNW 7.0 mph11.3 kmh 29.97 in1014.9 mb 0.00 in0.0 mm 0.00 in/hr0.0 mm/hr 0.00 in0.0 mm
08:08 AM 31.2°F-0.4°C 16.9°F-8.4°C 55% 7.0 mph W11.3 kmh W 7.0 mph11.3 kmh 29.97 in1014.9 mb 0.00 in0.0 mm 0.00 in/hr0.0 mm/hr 0.00 in0.0 mm
08:07 AM 31.2°F-0.4°C 16.9°F-8.4°C 55% 4.3 mph NW6.9 kmh NW 7.0 mph11.3 kmh 29.97 in1014.9 mb 0.00 in0.0 mm 0.00 in/hr0.0 mm/hr 0.00 in0.0 mm
08:06 AM 31.2°F-0.4°C 16.9°F-8.4°C 55% 2.7 mph NW4.3 kmh NW 7.5 mph12.1 kmh 29.97 in1014.9 mb 0.00 in0.0 mm 0.00 in/hr0.0 mm/hr 0.00 in0.0 mm
08:05 AM 31.0°F-0.6°C 16.7°F-8.5°C 55% Calm Calm 7.5 mph12.1 kmh 29.97 in1014.9 mb 0.00 in0.0 mm 0.00 in/hr0.0 mm/hr 0.00 in0.0 mm
08:04 AM 31.0°F-0.6°C 16.7°F-8.5°C 55% 4.3 mph NW6.9 kmh NW 7.5 mph12.1 kmh 29.97 in1014.9 mb 0.00 in0.0 mm 0.00 in/hr0.0 mm/hr 0.00 in0.0 mm
08:03 AM 31.0°F-0.6°C 16.7°F-8.5°C 55% 4.8 mph WNW7.7 kmh WNW 7.5 mph12.1 kmh 29.97 in1014.9 mb 0.00 in0.0 mm 0.00 in/hr0.0 mm/hr 0.00 in0.0 mm
08:02 AM 31.0°F-0.6°C 16.7°F-8.5°C 55% 5.9 mph NW9.5 kmh NW 7.5 mph12.1 kmh 29.97 in1014.9 mb 0.00 in0.0 mm 0.00 in/hr0.0 mm/hr 0.00 in0.0 mm
08:01 AM 31.0°F-0.6°C 16.7°F-8.5°C 55% 4.8 mph NNW7.7 kmh NNW 7.5 mph12.1 kmh 29.97 in1014.9 mb 0.00 in0.0 mm 0.00 in/hr0.0 mm/hr 0.00 in0.0 mm
08:00 AM 31.0°F-0.6°C 16.7°F-8.5°C 55% 4.8 mph NW7.7 kmh NW 9.7 mph15.6 kmh 29.97 in1014.9 mb 0.00 in0.0 mm 0.00 in/hr0.0 mm/hr 0.00 in0.0 mm
07:59 AM 30.8°F-0.7°C 16.6°F-8.6°C 55% 5.9 mph NW9.5 kmh NW 9.7 mph15.6 kmh 29.97 in1014.9 mb 0.00 in0.0 mm 0.00 in/hr0.0 mm/hr 0.00 in0.0 mm
07:58 AM 30.8°F-0.7°C 16.6°F-8.6°C 55% 4.3 mph NW6.9 kmh NW 9.7 mph15.6 kmh 29.97 in1014.9 mb 0.00 in0.0 mm 0.00 in/hr0.0 mm/hr 0.00 in0.0 mm
07:57 AM 30.8°F-0.7°C 17.0°F-8.3°C 56% 4.3 mph WNW6.9 kmh WNW 9.7 mph15.6 kmh 29.97 in1014.9 mb 0.00 in0.0 mm 0.00 in/hr0.0 mm/hr 0.00 in0.0 mm
07:56 AM 30.8°F-0.7°C 17.0°F-8.3°C 56% 4.8 mph WNW7.7 kmh WNW 9.7 mph15.6 kmh 29.97 in1014.9 mb 0.00 in0.0 mm 0.00 in/hr0.0 mm/hr 0.00 in0.0 mm
07:55 AM 30.8°F-0.7°C 17.0°F-8.3°C 56% 7.0 mph NNW11.3 kmh NNW 9.7 mph15.6 kmh 29.97 in1014.9 mb 0.00 in0.0 mm 0.00 in/hr0.0 mm/hr 0.00 in0.0 mm
07:54 AM 30.8°F-0.7°C 17.0°F-8.3°C 56% 4.8 mph NNW7.7 kmh NNW 9.7 mph15.6 kmh 29.97 in1014.9 mb 0.00 in0.0 mm 0.00 in/hr0.0 mm/hr 0.00 in0.0 mm
07:53 AM 30.8°F-0.7°C 17.0°F-8.3°C 56% 3.8 mph NNW6.1 kmh NNW 8.1 mph13.0 kmh 29.97 in1014.9 mb 0.00 in0.0 mm 0.00 in/hr0.0 mm/hr 0.00 in0.0 mm
07:52 AM 30.6°F-0.8°C 16.8°F-8.4°C 56% 4.3 mph NW6.9 kmh NW 8.1 mph13.0 kmh 29.97 in1014.9 mb 0.00 in0.0 mm 0.00 in/hr0.0 mm/hr 0.00 in0.0 mm
07:51 AM 30.6°F-0.8°C 16.8°F-8.4°C 56% 4.8 mph WNW7.7 kmh WNW 8.1 mph13.0 kmh 29.97 in1014.9 mb 0.00 in0.0 mm 0.00 in/hr0.0 mm/hr 0.00 in0.0 mm
07:50 AM 30.6°F-0.8°C 16.8°F-8.4°C 56% 3.2 mph NNW5.1 kmh NNW 7.5 mph12.1 kmh 29.97 in1014.9 mb 0.00 in0.0 mm 0.00 in/hr0.0 mm/hr 0.00 in0.0 mm
07:49 AM 30.6°F-0.8°C 16.8°F-8.4°C 56% 4.3 mph NW6.9 kmh NW 7.5 mph12.1 kmh 29.97 in1014.9 mb 0.00 in0.0 mm 0.00 in/hr0.0 mm/hr 0.00 in0.0 mm
07:48 AM 30.6°F-0.8°C 16.8°F-8.4°C 56% 2.7 mph NW4.3 kmh NW 7.0 mph11.3 kmh 29.97 in1014.9 mb 0.00 in0.0 mm 0.00 in/hr0.0 mm/hr 0.00 in0.0 mm
07:47 AM 30.6°F-0.8°C 16.8°F-8.4°C 56% Calm Calm 7.0 mph11.3 kmh 29.97 in1014.9 mb 0.00 in0.0 mm 0.00 in/hr0.0 mm/hr 0.00 in0.0 mm
07:46 AM 30.5°F-0.8°C 16.7°F-8.5°C 56% 4.3 mph NNW6.9 kmh NNW 7.0 mph11.3 kmh 29.97 in1014.9 mb 0.00 in0.0 mm 0.00 in/hr0.0 mm/hr 0.00 in0.0 mm
07:45 AM 30.5°F-0.8°C 16.7°F-8.5°C 56% 3.2 mph NW5.1 kmh NW 7.0 mph11.3 kmh 29.97 in1014.9 mb 0.00 in0.0 mm 0.00 in/hr0.0 mm/hr 0.00 in0.0 mm
07:44 AM 30.5°F-0.8°C 16.7°F-8.5°C 56% 4.3 mph NW6.9 kmh NW 9.1 mph14.6 kmh 29.97 in1014.9 mb 0.00 in0.0 mm 0.00 in/hr0.0 mm/hr 0.00 in0.0 mm
07:43 AM 30.5°F-0.8°C 16.7°F-8.5°C 56% 4.3 mph WSW6.9 kmh WSW 9.1 mph14.6 kmh 29.97 in1014.9 mb 0.00 in0.0 mm 0.00 in/hr0.0 mm/hr 0.00 in0.0 mm
07:42 AM 30.5°F-0.8°C 17.1°F-8.3°C 57% 3.8 mph NNW6.1 kmh NNW 9.1 mph14.6 kmh 29.97 in1014.9 mb 0.00 in0.0 mm 0.00 in/hr0.0 mm/hr 0.00 in0.0 mm
07:41 AM 30.3°F-0.9°C 16.9°F-8.4°C 57% 7.0 mph NW11.3 kmh NW 9.1 mph14.6 kmh 29.97 in1014.9 mb 0.00 in0.0 mm 0.00 in/hr0.0 mm/hr 0.00 in0.0 mm
07:40 AM 30.3°F-0.9°C 16.9°F-8.4°C 57% 4.3 mph NW6.9 kmh NW 9.1 mph14.6 kmh 29.94 in1013.9 mb 0.00 in0.0 mm 0.00 in/hr0.0 mm/hr 0.00 in0.0 mm
07:39 AM 30.3°F-0.9°C 16.9°F-8.4°C 57% 3.8 mph W6.1 kmh W 9.1 mph14.6 kmh 29.94 in1013.9 mb 0.00 in0.0 mm 0.00 in/hr0.0 mm/hr 0.00 in0.0 mm
07:38 AM 30.3°F-0.9°C 16.9°F-8.4°C 57% 4.3 mph NNE6.9 kmh NNE 9.1 mph14.6 kmh 29.94 in1013.9 mb 0.00 in0.0 mm 0.00 in/hr0.0 mm/hr 0.00 in0.0 mm
07:37 AM 30.3°F-0.9°C 16.9°F-8.4°C 57% 4.8 mph NNW7.7 kmh NNW 7.5 mph12.1 kmh 29.94 in1013.9 mb 0.00 in0.0 mm 0.00 in/hr0.0 mm/hr 0.00 in0.0 mm
07:36 AM 30.1°F-1.1°C 16.7°F-8.5°C 57% 3.2 mph WNW5.1 kmh WNW 9.9 mph15.9 kmh 29.94 in1013.9 mb 0.00 in0.0 mm 0.00 in/hr0.0 mm/hr 0.00 in0.0 mm
07:35 AM 30.1°F-1.1°C 16.7°F-8.5°C 57% 7.5 mph N12.1 kmh N 9.9 mph15.9 kmh 29.94 in1013.9 mb 0.00 in0.0 mm 0.00 in/hr0.0 mm/hr 0.00 in0.0 mm
07:34 AM 30.1°F-1.1°C 16.7°F-8.5°C 57% 4.3 mph NW6.9 kmh NW 9.9 mph15.9 kmh 29.94 in1013.9 mb 0.00 in0.0 mm 0.00 in/hr0.0 mm/hr 0.00 in0.0 mm
07:33 AM 30.1°F-1.1°C 16.7°F-8.5°C 57% 3.8 mph NW6.1 kmh NW 9.9 mph15.9 kmh 29.94 in1013.9 mb 0.00 in0.0 mm 0.00 in/hr0.0 mm/hr 0.00 in0.0 mm
07:32 AM 30.1°F-1.1°C 16.7°F-8.5°C 57% 4.3 mph NNW6.9 kmh NNW 9.9 mph15.9 kmh 29.94 in1013.9 mb 0.00 in0.0 mm 0.00 in/hr0.0 mm/hr 0.00 in0.0 mm
07:31 AM 30.1°F-1.1°C 16.7°F-8.5°C 57% 3.8 mph NW6.1 kmh NW 9.9 mph15.9 kmh 29.94 in1013.9 mb 0.00 in0.0 mm 0.00 in/hr0.0 mm/hr 0.00 in0.0 mm
07:30 AM 30.1°F-1.1°C 16.7°F-8.5°C 57% 4.8 mph WNW7.7 kmh WNW 9.9 mph15.9 kmh 29.94 in1013.9 mb 0.00 in0.0 mm 0.00 in/hr0.0 mm/hr 0.00 in0.0 mm
07:29 AM 30.1°F-1.1°C 16.7°F-8.5°C 57% 9.9 mph NW15.9 kmh NW 9.9 mph15.9 kmh 29.94 in1013.9 mb 0.00 in0.0 mm 0.00 in/hr0.0 mm/hr 0.00 in0.0 mm
07:28 AM 30.1°F-1.1°C 16.7°F-8.5°C 57% 7.5 mph NW12.1 kmh NW 7.5 mph12.1 kmh 29.94 in1013.9 mb 0.00 in0.0 mm 0.00 in/hr0.0 mm/hr 0.00 in0.0 mm
07:27 AM 30.1°F-1.1°C 17.1°F-8.3°C 58% Calm Calm 6.4 mph10.3 kmh 29.94 in1013.9 mb 0.00 in0.0 mm 0.00 in/hr0.0 mm/hr 0.00 in0.0 mm
07:26 AM 30.1°F-1.1°C 17.1°F-8.3°C 58% 3.2 mph WNW5.1 kmh WNW 7.0 mph11.3 kmh 29.94 in1013.9 mb 0.00 in0.0 mm 0.00 in/hr0.0 mm/hr 0.00 in0.0 mm
07:25 AM 30.1°F-1.1°C 17.1°F-8.3°C 58% 3.2 mph NW5.1 kmh NW 9.9 mph15.9 kmh 29.94 in1013.9 mb 0.00 in0.0 mm 0.00 in/hr0.0 mm/hr 0.00 in0.0 mm
07:24 AM 30.1°F-1.1°C 17.1°F-8.3°C 58% 4.3 mph NW6.9 kmh NW 9.9 mph15.9 kmh 29.94 in1013.9 mb 0.00 in0.0 mm 0.00 in/hr0.0 mm/hr 0.00 in0.0 mm
07:23 AM 30.1°F-1.1°C 17.1°F-8.3°C 58% 6.4 mph N10.3 kmh N 9.9 mph15.9 kmh 29.94 in1013.9 mb 0.00 in0.0 mm 0.00 in/hr0.0 mm/hr 0.00 in0.0 mm
07:22 AM 29.9°F-1.2°C 17.0°F-8.3°C 58% 4.3 mph NW6.9 kmh NW 9.9 mph15.9 kmh 29.94 in1013.9 mb 0.00 in0.0 mm 0.00 in/hr0.0 mm/hr 0.00 in0.0 mm
07:21 AM 29.9°F-1.2°C 17.0°F-8.3°C 58% 3.8 mph NNW6.1 kmh NNW 9.9 mph15.9 kmh 29.94 in1013.9 mb 0.00 in0.0 mm 0.00 in/hr0.0 mm/hr 0.00 in0.0 mm
07:20 AM 29.9°F-1.2°C 17.0°F-8.3°C 58% 4.3 mph N6.9 kmh N 9.9 mph15.9 kmh 29.94 in1013.9 mb 0.00 in0.0 mm 0.00 in/hr0.0 mm/hr 0.00 in0.0 mm
07:19 AM 29.9°F-1.2°C 17.0°F-8.3°C 58% 7.0 mph NNW11.3 kmh NNW 9.9 mph15.9 kmh 29.94 in1013.9 mb 0.00 in0.0 mm 0.00 in/hr0.0 mm/hr 0.00 in0.0 mm
07:18 AM 29.9°F-1.2°C 17.0°F-8.3°C 58% 7.5 mph NNW12.1 kmh NNW 9.1 mph14.6 kmh 29.94 in1013.9 mb 0.00 in0.0 mm 0.00 in/hr0.0 mm/hr 0.00 in0.0 mm
07:17 AM 29.9°F-1.2°C 17.0°F-8.3°C 58% 6.4 mph NW10.3 kmh NW 9.1 mph14.6 kmh 29.94 in1013.9 mb 0.00 in0.0 mm 0.00 in/hr0.0 mm/hr 0.00 in0.0 mm
07:16 AM 29.9°F-1.2°C 17.0°F-8.3°C 58% 3.8 mph NW6.1 kmh NW 9.1 mph14.6 kmh 29.94 in1013.9 mb 0.00 in0.0 mm 0.00 in/hr0.0 mm/hr 0.00 in0.0 mm
07:15 AM 29.9°F-1.2°C 17.0°F-8.3°C 58% 3.8 mph N6.1 kmh N 9.1 mph14.6 kmh 29.94 in1013.9 mb 0.00 in0.0 mm 0.00 in/hr0.0 mm/hr 0.00 in0.0 mm
07:14 AM 29.9°F-1.2°C 17.0°F-8.3°C 58% 4.3 mph NW6.9 kmh NW 10.5 mph16.9 kmh 29.94 in1013.9 mb 0.00 in0.0 mm 0.00 in/hr0.0 mm/hr 0.00 in0.0 mm
07:13 AM 29.9°F-1.2°C 17.0°F-8.3°C 58% 7.5 mph NW12.1 kmh NW 10.5 mph16.9 kmh 29.94 in1013.9 mb 0.00 in0.0 mm 0.00 in/hr0.0 mm/hr 0.00 in0.0 mm
07:12 AM 29.9°F-1.2°C 17.0°F-8.3°C 58% 7.0 mph N11.3 kmh N 10.5 mph16.9 kmh 29.94 in1013.9 mb 0.00 in0.0 mm 0.00 in/hr0.0 mm/hr 0.00 in0.0 mm
07:11 AM 29.9°F-1.2°C 17.0°F-8.3°C 58% 4.3 mph NW6.9 kmh NW 10.5 mph16.9 kmh 29.94 in1013.9 mb 0.00 in0.0 mm 0.00 in/hr0.0 mm/hr 0.00 in0.0 mm
07:10 AM 29.9°F-1.2°C 17.0°F-8.3°C 58% 6.4 mph NW10.3 kmh NW 10.5 mph16.9 kmh 29.94 in1013.9 mb 0.00 in0.0 mm 0.00 in/hr0.0 mm/hr 0.00 in0.0 mm
07:09 AM 29.9°F-1.2°C 17.0°F-8.3°C 58% 5.9 mph 9.5 kmh 10.5 mph16.9 kmh 29.94 in1013.9 mb 0.00 in0.0 mm 0.00 in/hr0.0 mm/hr 0.00 in0.0 mm
07:08 AM 29.9°F-1.2°C 17.0°F-8.3°C 58% 5.9 mph WSW9.5 kmh WSW 10.5 mph16.9 kmh 29.94 in1013.9 mb 0.00 in0.0 mm 0.00 in/hr0.0 mm/hr 0.00 in0.0 mm
07:07 AM 29.7°F-1.3°C 16.8°F-8.4°C 58% 7.5 mph NW12.1 kmh NW 7.5 mph12.1 kmh 29.94 in1013.9 mb 0.00 in0.0 mm 0.00 in/hr0.0 mm/hr 0.00 in0.0 mm
07:06 AM 29.7°F-1.3°C 16.8°F-8.4°C 58% 4.3 mph WNW6.9 kmh WNW 7.5 mph12.1 kmh 29.94 in1013.9 mb 0.00 in0.0 mm 0.00 in/hr0.0 mm/hr 0.00 in0.0 mm
07:05 AM 29.7°F-1.3°C 16.8°F-8.4°C 58% 4.3 mph WNW6.9 kmh WNW 7.0 mph11.3 kmh 29.94 in1013.9 mb 0.00 in0.0 mm 0.00 in/hr0.0 mm/hr 0.00 in0.0 mm
07:04 AM 29.7°F-1.3°C 16.8°F-8.4°C 58% 3.8 mph WNW6.1 kmh WNW 4.8 mph7.7 kmh 29.94 in1013.9 mb 0.00 in0.0 mm 0.00 in/hr0.0 mm/hr 0.00 in0.0 mm
07:03 AM 29.7°F-1.3°C 16.8°F-8.4°C 58% 4.3 mph WNW6.9 kmh WNW 4.8 mph7.7 kmh 29.94 in1013.9 mb 0.00 in0.0 mm 0.00 in/hr0.0 mm/hr 0.00 in0.0 mm
07:02 AM 29.7°F-1.3°C 16.8°F-8.4°C 58% 4.3 mph NNW6.9 kmh NNW 4.8 mph7.7 kmh 29.94 in1013.9 mb 0.00 in0.0 mm 0.00 in/hr0.0 mm/hr 0.00 in0.0 mm
07:01 AM 29.7°F-1.3°C 16.8°F-8.4°C 58% 3.8 mph WNW6.1 kmh WNW 4.8 mph7.7 kmh 29.94 in1013.9 mb 0.00 in0.0 mm 0.00 in/hr0.0 mm/hr 0.00 in0.0 mm
07:00 AM 29.7°F-1.3°C 16.8°F-8.4°C 58% Calm Calm 4.8 mph7.7 kmh 29.94 in1013.9 mb 0.00 in0.0 mm 0.00 in/hr0.0 mm/hr 0.00 in0.0 mm
06:59 AM 29.7°F-1.3°C 16.8°F-8.4°C 58% 3.2 mph NW5.1 kmh NW 5.9 mph9.5 kmh 29.94 in1013.9 mb 0.00 in0.0 mm 0.00 in/hr0.0 mm/hr 0.00 in0.0 mm
06:58 AM 29.7°F-1.3°C 16.4°F-8.7°C 57% 3.2 mph NNW5.1 kmh NNW 5.9 mph9.5 kmh 29.94 in1013.9 mb 0.00 in0.0 mm 0.00 in/hr0.0 mm/hr 0.00 in0.0 mm
06:57 AM 29.7°F-1.3°C 16.4°F-8.7°C 57% 3.8 mph NW6.1 kmh NW 5.9 mph9.5 kmh 29.94 in1013.9 mb 0.00 in0.0 mm 0.00 in/hr0.0 mm/hr 0.00 in0.0 mm
06:56 AM 29.7°F-1.3°C 16.4°F-8.7°C 57% 4.3 mph NW6.9 kmh NW 7.5 mph12.1 kmh 29.94 in1013.9 mb 0.00 in0.0 mm 0.00 in/hr0.0 mm/hr 0.00 in0.0 mm
06:55 AM 29.7°F-1.3°C 16.4°F-8.7°C 57% 4.3 mph NW6.9 kmh NW 9.1 mph14.6 kmh 29.94 in1013.9 mb 0.00 in0.0 mm 0.00 in/hr0.0 mm/hr 0.00 in0.0 mm
06:54 AM 29.7°F-1.3°C 16.4°F-8.7°C 57% 3.8 mph NNW6.1 kmh NNW 9.1 mph14.6 kmh 29.94 in1013.9 mb 0.00 in0.0 mm 0.00 in/hr0.0 mm/hr 0.00 in0.0 mm
06:53 AM 29.7°F-1.3°C 16.4°F-8.7°C 57% 5.4 mph NW8.7 kmh NW 9.1 mph14.6 kmh 29.94 in1013.9 mb 0.00 in0.0 mm 0.00 in/hr0.0 mm/hr 0.00 in0.0 mm
06:52 AM 29.7°F-1.3°C 16.4°F-8.7°C 57% Calm Calm 9.1 mph14.6 kmh 29.94 in1013.9 mb 0.00 in0.0 mm 0.00 in/hr0.0 mm/hr 0.00 in0.0 mm
06:51 AM 29.7°F-1.3°C 16.4°F-8.7°C 57% 3.2 mph NW5.1 kmh NW 9.1 mph14.6 kmh 29.94 in1013.9 mb 0.00 in0.0 mm 0.00 in/hr0.0 mm/hr 0.00 in0.0 mm
06:50 AM 29.9°F-1.2°C 16.6°F-8.6°C 57% 3.2 mph NNW5.1 kmh NNW 9.1 mph14.6 kmh 29.94 in1013.9 mb 0.00 in0.0 mm 0.00 in/hr0.0 mm/hr 0.00 in0.0 mm
06:49 AM 29.9°F-1.2°C 16.6°F-8.6°C 57% 7.0 mph NNW11.3 kmh NNW 9.1 mph14.6 kmh 29.94 in1013.9 mb 0.00 in0.0 mm 0.00 in/hr0.0 mm/hr 0.00 in0.0 mm
06:48 AM 29.9°F-1.2°C 16.6°F-8.6°C 57% 3.8 mph NW6.1 kmh NW 7.5 mph12.1 kmh 29.94 in1013.9 mb 0.00 in0.0 mm 0.00 in/hr0.0 mm/hr 0.00 in0.0 mm
06:47 AM 29.9°F-1.2°C 16.6°F-8.6°C 57% 3.2 mph NW5.1 kmh NW 7.5 mph12.1 kmh 29.94 in1013.9 mb 0.00 in0.0 mm 0.00 in/hr0.0 mm/hr 0.00 in0.0 mm
06:46 AM 29.9°F-1.2°C 16.6°F-8.6°C 57% 6.4 mph N10.3 kmh N 7.5 mph12.1 kmh 29.94 in1013.9 mb 0.00 in0.0 mm 0.00 in/hr0.0 mm/hr 0.00 in0.0 mm
06:45 AM 29.9°F-1.2°C 16.6°F-8.6°C 57% 4.8 mph NW7.7 kmh NW 7.0 mph11.3 kmh 29.94 in1013.9 mb 0.00 in0.0 mm 0.00 in/hr0.0 mm/hr 0.00 in0.0 mm
06:44 AM 29.9°F-1.2°C 16.6°F-8.6°C 57% 4.8 mph NNW7.7 kmh NNW 7.0 mph11.3 kmh 29.94 in1013.9 mb 0.00 in0.0 mm 0.00 in/hr0.0 mm/hr 0.00 in0.0 mm
06:43 AM 29.9°F-1.2°C 16.6°F-8.6°C 57% 4.8 mph NNW7.7 kmh NNW 7.0 mph11.3 kmh 29.94 in1013.9 mb 0.00 in0.0 mm 0.00 in/hr0.0 mm/hr 0.00 in0.0 mm
06:42 AM 29.9°F-1.2°C 16.6°F-8.6°C 57% 4.8 mph NNW7.7 kmh NNW 4.8 mph7.7 kmh 29.94 in1013.9 mb 0.00 in0.0 mm 0.00 in/hr0.0 mm/hr 0.00 in0.0 mm
06:41 AM 29.9°F-1.2°C 16.6°F-8.6°C 57% Calm Calm 4.8 mph7.7 kmh 29.94 in1013.9 mb 0.00 in0.0 mm 0.00 in/hr0.0 mm/hr 0.00 in0.0 mm
06:40 AM 29.9°F-1.2°C 16.6°F-8.6°C 57% Calm Calm 4.8 mph7.7 kmh 29.94 in1013.9 mb 0.00 in0.0 mm 0.00 in/hr0.0 mm/hr 0.00 in0.0 mm
06:39 AM 29.9°F-1.2°C 16.6°F-8.6°C 57% 3.8 mph NW6.1 kmh NW 4.8 mph7.7 kmh 29.94 in1013.9 mb 0.00 in0.0 mm 0.00 in/hr0.0 mm/hr 0.00 in0.0 mm
06:38 AM 29.9°F-1.2°C 16.6°F-8.6°C 57% 3.8 mph NNW6.1 kmh NNW 4.8 mph7.7 kmh 29.94 in1013.9 mb 0.00 in0.0 mm 0.00 in/hr0.0 mm/hr 0.00 in0.0 mm
06:37 AM 29.9°F-1.2°C 16.6°F-8.6°C 57% 3.2 mph NW5.1 kmh NW 4.8 mph7.7 kmh 29.94 in1013.9 mb 0.00 in0.0 mm 0.00 in/hr0.0 mm/hr 0.00 in0.0 mm
06:36 AM 29.9°F-1.2°C 16.6°F-8.6°C 57% 3.2 mph NW5.1 kmh NW 4.8 mph7.7 kmh 29.94 in1013.9 mb 0.00 in0.0 mm 0.00 in/hr0.0 mm/hr 0.00 in0.0 mm
06:35 AM 29.9°F-1.2°C 16.6°F-8.6°C 57% 2.7 mph NW4.3 kmh NW 4.8 mph7.7 kmh 29.94 in1013.9 mb 0.00 in0.0 mm 0.00 in/hr0.0 mm/hr 0.00 in0.0 mm
06:34 AM 29.9°F-1.2°C 16.6°F-8.6°C 57% 3.2 mph NW5.1 kmh NW 4.8 mph7.7 kmh 29.94 in1013.9 mb 0.00 in0.0 mm 0.00 in/hr0.0 mm/hr 0.00 in0.0 mm
06:33 AM 29.9°F-1.2°C 16.6°F-8.6°C 57% 4.3 mph NW6.9 kmh NW 6.4 mph10.3 kmh 29.94 in1013.9 mb 0.00 in0.0 mm 0.00 in/hr0.0 mm/hr 0.00 in0.0 mm
06:32 AM 29.9°F-1.2°C 16.6°F-8.6°C 57% 3.8 mph NW6.1 kmh NW 6.4 mph10.3 kmh 29.94 in1013.9 mb 0.00 in0.0 mm 0.00 in/hr0.0 mm/hr 0.00 in0.0 mm
06:31 AM 29.9°F-1.2°C 16.6°F-8.6°C 57% 3.8 mph WNW6.1 kmh WNW 6.4 mph10.3 kmh 29.94 in1013.9 mb 0.00 in0.0 mm 0.00 in/hr0.0 mm/hr 0.00 in0.0 mm
06:30 AM 29.9°F-1.2°C 16.6°F-8.6°C 57% 4.8 mph NW7.7 kmh NW 6.4 mph10.3 kmh 29.94 in1013.9 mb 0.00 in0.0 mm 0.00 in/hr0.0 mm/hr 0.00 in0.0 mm
06:29 AM 29.9°F-1.2°C 16.6°F-8.6°C 57% 3.8 mph NNW6.1 kmh NNW 6.4 mph10.3 kmh 29.94 in1013.9 mb 0.00 in0.0 mm 0.00 in/hr0.0 mm/hr 0.00 in0.0 mm
06:28 AM 29.9°F-1.2°C 17.0°F-8.3°C 58% 4.3 mph WNW6.9 kmh WNW 6.4 mph10.3 kmh 29.94 in1013.9 mb 0.00 in0.0 mm 0.00 in/hr0.0 mm/hr 0.00 in0.0 mm
06:27 AM 29.9°F-1.2°C 17.0°F-8.3°C 58% 4.3 mph NW6.9 kmh NW 6.4 mph10.3 kmh 29.94 in1013.9 mb 0.00 in0.0 mm 0.00 in/hr0.0 mm/hr 0.00 in0.0 mm
06:26 AM 29.9°F-1.2°C 17.0°F-8.3°C 58% Calm Calm 5.9 mph9.5 kmh 29.94 in1013.9 mb 0.00 in0.0 mm 0.00 in/hr0.0 mm/hr 0.00 in0.0 mm
06:25 AM 29.9°F-1.2°C 17.0°F-8.3°C 58% 5.9 mph NW9.5 kmh NW 5.9 mph9.5 kmh 29.94 in1013.9 mb 0.00 in0.0 mm 0.00 in/hr0.0 mm/hr 0.00 in0.0 mm
06:24 AM 29.9°F-1.2°C 17.0°F-8.3°C 58% 4.8 mph NNW7.7 kmh NNW 7.5 mph12.1 kmh 29.94 in1013.9 mb 0.00 in0.0 mm 0.00 in/hr0.0 mm/hr 0.00 in0.0 mm
06:23 AM 29.9°F-1.2°C 17.0°F-8.3°C 58% 3.8 mph WNW6.1 kmh WNW 7.5 mph12.1 kmh 29.94 in1013.9 mb 0.00 in0.0 mm 0.00 in/hr0.0 mm/hr 0.00 in0.0 mm
06:22 AM 29.9°F-1.2°C 17.0°F-8.3°C 58% 3.8 mph NNW6.1 kmh NNW 7.5 mph12.1 kmh 29.94 in1013.9 mb 0.00 in0.0 mm 0.00 in/hr0.0 mm/hr 0.00 in0.0 mm
06:21 AM 29.9°F-1.2°C 17.0°F-8.3°C 58% 3.8 mph WNW6.1 kmh WNW 7.5 mph12.1 kmh 29.94 in1013.9 mb 0.00 in0.0 mm 0.00 in/hr0.0 mm/hr 0.00 in0.0 mm
06:20 AM 29.9°F-1.2°C 17.0°F-8.3°C 58% 3.8 mph WNW6.1 kmh WNW 7.5 mph12.1 kmh 29.94 in1013.9 mb 0.00 in0.0 mm 0.00 in/hr0.0 mm/hr 0.00 in0.0 mm
06:19 AM 29.9°F-1.2°C 17.0°F-8.3°C 58% 3.8 mph NW6.1 kmh NW 7.5 mph12.1 kmh 29.94 in1013.9 mb 0.00 in0.0 mm 0.00 in/hr0.0 mm/hr 0.00 in0.0 mm
06:18 AM 29.9°F-1.2°C 17.0°F-8.3°C 58% 3.8 mph NW6.1 kmh NW 7.5 mph12.1 kmh 29.94 in1013.9 mb 0.00 in0.0 mm 0.00 in/hr0.0 mm/hr 0.00 in0.0 mm
06:17 AM 29.9°F-1.2°C 17.0°F-8.3°C 58% 3.8 mph NW6.1 kmh NW 6.4 mph10.3 kmh 29.94 in1013.9 mb 0.00 in0.0 mm 0.00 in/hr0.0 mm/hr 0.00 in0.0 mm
06:16 AM 29.9°F-1.2°C 17.0°F-8.3°C 58% 4.8 mph WNW7.7 kmh WNW 9.9 mph15.9 kmh 29.94 in1013.9 mb 0.00 in0.0 mm 0.00 in/hr0.0 mm/hr 0.00 in0.0 mm
06:15 AM 30.1°F-1.1°C 17.1°F-8.3°C 58% 2.7 mph NW4.3 kmh NW 9.9 mph15.9 kmh 29.94 in1013.9 mb 0.00 in0.0 mm 0.00 in/hr0.0 mm/hr 0.00 in0.0 mm
06:14 AM 30.1°F-1.1°C 17.1°F-8.3°C 58% 3.8 mph WNW6.1 kmh WNW 9.9 mph15.9 kmh 29.94 in1013.9 mb 0.00 in0.0 mm 0.00 in/hr0.0 mm/hr 0.00 in0.0 mm
06:13 AM 30.1°F-1.1°C 17.1°F-8.3°C 58% 4.8 mph WNW7.7 kmh WNW 9.9 mph15.9 kmh 29.94 in1013.9 mb 0.00 in0.0 mm 0.00 in/hr0.0 mm/hr 0.00 in0.0 mm
06:12 AM 30.1°F-1.1°C 17.1°F-8.3°C 58% 4.8 mph WNW7.7 kmh WNW 9.9 mph15.9 kmh 29.94 in1013.9 mb 0.00 in0.0 mm 0.00 in/hr0.0 mm/hr 0.00 in0.0 mm
06:11 AM 30.1°F-1.1°C 17.1°F-8.3°C 58% 4.8 mph NW7.7 kmh NW 9.9 mph15.9 kmh 29.94 in1013.9 mb 0.00 in0.0 mm 0.00 in/hr0.0 mm/hr 0.00 in0.0 mm
06:10 AM 30.1°F-1.1°C 17.1°F-8.3°C 58% 4.3 mph NW6.9 kmh NW 9.9 mph15.9 kmh 29.94 in1013.9 mb 0.00 in0.0 mm 0.00 in/hr0.0 mm/hr 0.00 in0.0 mm
06:09 AM 30.1°F-1.1°C 17.1°F-8.3°C 58% 6.4 mph NNW10.3 kmh NNW 9.9 mph15.9 kmh 29.94 in1013.9 mb 0.00 in0.0 mm 0.00 in/hr0.0 mm/hr 0.00 in0.0 mm
06:08 AM 30.1°F-1.1°C 17.1°F-8.3°C 58% 3.8 mph WNW6.1 kmh WNW 7.5 mph12.1 kmh 29.94 in1013.9 mb 0.00 in0.0 mm 0.00 in/hr0.0 mm/hr 0.00 in0.0 mm
06:07 AM 30.1°F-1.1°C 17.1°F-8.3°C 58% 3.2 mph NNW5.1 kmh NNW 7.5 mph12.1 kmh 29.94 in1013.9 mb 0.00 in0.0 mm 0.00 in/hr0.0 mm/hr 0.00 in0.0 mm
06:06 AM 30.1°F-1.1°C 17.1°F-8.3°C 58% 4.3 mph N6.9 kmh N 7.5 mph12.1 kmh 29.94 in1013.9 mb 0.00 in0.0 mm 0.00 in/hr0.0 mm/hr 0.00 in0.0 mm
06:05 AM 30.1°F-1.1°C 17.1°F-8.3°C 58% 3.8 mph W6.1 kmh W 7.5 mph12.1 kmh 29.94 in1013.9 mb 0.00 in0.0 mm 0.00 in/hr0.0 mm/hr 0.00 in0.0 mm
06:04 AM 30.1°F-1.1°C 17.1°F-8.3°C 58% 7.5 mph NNW12.1 kmh NNW 7.5 mph12.1 kmh 29.94 in1013.9 mb 0.00 in0.0 mm 0.00 in/hr0.0 mm/hr 0.00 in0.0 mm
06:03 AM 30.1°F-1.1°C 17.1°F-8.3°C 58% 2.7 mph NW4.3 kmh NW 7.5 mph12.1 kmh 29.94 in1013.9 mb 0.00 in0.0 mm 0.00 in/hr0.0 mm/hr 0.00 in0.0 mm
06:02 AM 30.1°F-1.1°C 17.1°F-8.3°C 58% 5.9 mph NW9.5 kmh NW 7.5 mph12.1 kmh 29.94 in1013.9 mb 0.00 in0.0 mm 0.00 in/hr0.0 mm/hr 0.00 in0.0 mm
06:01 AM 30.1°F-1.1°C 17.1°F-8.3°C 58% 4.8 mph WNW7.7 kmh WNW 7.5 mph12.1 kmh 29.94 in1013.9 mb 0.00 in0.0 mm 0.00 in/hr0.0 mm/hr 0.00 in0.0 mm
06:00 AM 30.1°F-1.1°C 17.1°F-8.3°C 58% 6.4 mph WNW10.3 kmh WNW 6.4 mph10.3 kmh 29.94 in1013.9 mb 0.00 in0.0 mm 0.00 in/hr0.0 mm/hr 0.00 in0.0 mm
05:59 AM 30.1°F-1.1°C 17.1°F-8.3°C 58% 6.4 mph NW10.3 kmh NW 6.4 mph10.3 kmh 29.94 in1013.9 mb 0.00 in0.0 mm 0.00 in/hr0.0 mm/hr 0.00 in0.0 mm
05:58 AM 30.1°F-1.1°C 17.1°F-8.3°C 58% Calm Calm -- 29.94 in1013.9 mb 0.00 in0.0 mm 0.00 in/hr0.0 mm/hr 0.00 in0.0 mm
05:57 AM 30.1°F-1.1°C 17.1°F-8.3°C 58% Calm Calm -- 29.94 in1013.9 mb 0.00 in0.0 mm 0.00 in/hr0.0 mm/hr 0.00 in0.0 mm
05:56 AM 30.1°F-1.1°C 17.1°F-8.3°C 58% Calm Calm -- 29.94 in1013.9 mb 0.00 in0.0 mm 0.00 in/hr0.0 mm/hr 0.00 in0.0 mm
05:55 AM 30.1°F-1.1°C 17.1°F-8.3°C 58% Calm Calm -- 29.94 in1013.9 mb 0.00 in0.0 mm 0.00 in/hr0.0 mm/hr 0.00 in0.0 mm
05:54 AM 30.1°F-1.1°C 17.1°F-8.3°C 58% Calm Calm -- 29.94 in1013.9 mb 0.00 in0.0 mm 0.00 in/hr0.0 mm/hr 0.00 in0.0 mm
05:53 AM 30.1°F-1.1°C 16.7°F-8.5°C 57% Calm Calm 4.8 mph7.7 kmh 29.94 in1013.9 mb 0.00 in0.0 mm 0.00 in/hr0.0 mm/hr 0.00 in0.0 mm
05:52 AM 30.1°F-1.1°C 16.7°F-8.5°C 57% Calm Calm 6.4 mph10.3 kmh 29.94 in1013.9 mb 0.00 in0.0 mm 0.00 in/hr0.0 mm/hr 0.00 in0.0 mm
05:51 AM 30.1°F-1.1°C 16.7°F-8.5°C 57% Calm Calm 6.4 mph10.3 kmh 29.94 in1013.9 mb 0.00 in0.0 mm 0.00 in/hr0.0 mm/hr 0.00 in0.0 mm
05:50 AM 30.1°F-1.1°C 16.7°F-8.5°C 57% Calm Calm 6.4 mph10.3 kmh 29.94 in1013.9 mb 0.00 in0.0 mm 0.00 in/hr0.0 mm/hr 0.00 in0.0 mm
05:49 AM 30.1°F-1.1°C 16.7°F-8.5°C 57% Calm Calm 6.4 mph10.3 kmh 29.94 in1013.9 mb 0.00 in0.0 mm 0.00 in/hr0.0 mm/hr 0.00 in0.0 mm
05:48 AM 30.1°F-1.1°C 16.7°F-8.5°C 57% Calm Calm 6.4 mph10.3 kmh 29.94 in1013.9 mb 0.00 in0.0 mm 0.00 in/hr0.0 mm/hr 0.00 in0.0 mm
05:47 AM 30.1°F-1.1°C 16.7°F-8.5°C 57% Calm Calm 6.4 mph10.3 kmh 29.94 in1013.9 mb 0.00 in0.0 mm 0.00 in/hr0.0 mm/hr 0.00 in0.0 mm
05:45 AM 30.1°F-1.1°C 16.7°F-8.5°C 57% Calm Calm -- 29.94 in1013.9 mb 0.00 in0.0 mm 0.00 in/hr0.0 mm/hr 0.00 in0.0 mm
05:44 AM 30.1°F-1.1°C 16.7°F-8.5°C 57% Calm Calm -- 29.94 in1013.9 mb 0.00 in0.0 mm 0.00 in/hr0.0 mm/hr 0.00 in0.0 mm
05:43 AM 30.1°F-1.1°C 16.7°F-8.5°C 57% Calm Calm -- 29.94 in1013.9 mb 0.00 in0.0 mm 0.00 in/hr0.0 mm/hr 0.00 in0.0 mm
05:42 AM 30.1°F-1.1°C 16.7°F-8.5°C 57% Calm Calm -- 29.94 in1013.9 mb 0.00 in0.0 mm 0.00 in/hr0.0 mm/hr 0.00 in0.0 mm
05:41 AM 30.1°F-1.1°C 16.7°F-8.5°C 57% Calm Calm -- 29.94 in1013.9 mb 0.00 in0.0 mm 0.00 in/hr0.0 mm/hr 0.00 in0.0 mm
05:40 AM 30.1°F-1.1°C 16.7°F-8.5°C 57% Calm Calm -- 29.91 in1012.9 mb 0.00 in0.0 mm 0.00 in/hr0.0 mm/hr 0.00 in0.0 mm
05:39 AM 30.1°F-1.1°C 16.7°F-8.5°C 57% Calm Calm -- 29.91 in1012.9 mb 0.00 in0.0 mm 0.00 in/hr0.0 mm/hr 0.00 in0.0 mm
05:38 AM 30.1°F-1.1°C 16.7°F-8.5°C 57% Calm Calm -- 29.91 in1012.9 mb 0.00 in0.0 mm 0.00 in/hr0.0 mm/hr 0.00 in0.0 mm
05:37 AM 30.1°F-1.1°C 16.7°F-8.5°C 57% Calm Calm -- 29.91 in1012.9 mb 0.00 in0.0 mm 0.00 in/hr0.0 mm/hr 0.00 in0.0 mm
05:36 AM 30.1°F-1.1°C 16.7°F-8.5°C 57% Calm Calm -- 29.91 in1012.9 mb 0.00 in0.0 mm 0.00 in/hr0.0 mm/hr 0.00 in0.0 mm
05:35 AM 30.1°F-1.1°C 16.7°F-8.5°C 57% Calm Calm -- 29.91 in1012.9 mb 0.00 in0.0 mm 0.00 in/hr0.0 mm/hr 0.00 in0.0 mm
05:34 AM 30.1°F-1.1°C 16.7°F-8.5°C 57% Calm Calm -- 29.91 in1012.9 mb 0.00 in0.0 mm 0.00 in/hr0.0 mm/hr 0.00 in0.0 mm
05:33 AM 30.1°F-1.1°C 16.7°F-8.5°C 57% Calm Calm -- 29.91 in1012.9 mb 0.00 in0.0 mm 0.00 in/hr0.0 mm/hr 0.00 in0.0 mm
05:32 AM 30.1°F-1.1°C 16.7°F-8.5°C 57% Calm Calm -- 29.91 in1012.9 mb 0.00 in0.0 mm 0.00 in/hr0.0 mm/hr 0.00 in0.0 mm
05:31 AM 30.1°F-1.1°C 16.7°F-8.5°C 57% Calm Calm -- 29.91 in1012.9 mb 0.00 in0.0 mm 0.00 in/hr0.0 mm/hr 0.00 in0.0 mm
05:30 AM 30.1°F-1.1°C 16.7°F-8.5°C 57% Calm Calm -- 29.91 in1012.9 mb 0.00 in0.0 mm 0.00 in/hr0.0 mm/hr 0.00 in0.0 mm
05:29 AM 30.1°F-1.1°C 16.7°F-8.5°C 57% Calm Calm -- 29.91 in1012.9 mb 0.00 in0.0 mm 0.00 in/hr0.0 mm/hr 0.00 in0.0 mm
05:28 AM 30.1°F-1.1°C 16.7°F-8.5°C 57% Calm Calm -- 29.91 in1012.9 mb 0.00 in0.0 mm 0.00 in/hr0.0 mm/hr 0.00 in0.0 mm
05:27 AM 30.1°F-1.1°C 16.7°F-8.5°C 57% Calm Calm -- 29.91 in1012.9 mb 0.00 in0.0 mm 0.00 in/hr0.0 mm/hr 0.00 in0.0 mm
05:26 AM 30.1°F-1.1°C 16.7°F-8.5°C 57% Calm Calm -- 29.91 in1012.9 mb 0.00 in0.0 mm 0.00 in/hr0.0 mm/hr 0.00 in0.0 mm
05:25 AM 30.1°F-1.1°C 16.3°F-8.7°C 56% Calm Calm -- 29.94 in1013.9 mb 0.00 in0.0 mm 0.00 in/hr0.0 mm/hr 0.00 in0.0 mm
05:24 AM 30.1°F-1.1°C 16.3°F-8.7°C 56% Calm Calm -- 29.94 in1013.9 mb 0.00 in0.0 mm 0.00 in/hr0.0 mm/hr 0.00 in0.0 mm
05:23 AM 30.1°F-1.1°C 16.3°F-8.7°C 56% Calm Calm -- 29.94 in1013.9 mb 0.00 in0.0 mm 0.00 in/hr0.0 mm/hr 0.00 in0.0 mm
05:22 AM 30.1°F-1.1°C 16.3°F-8.7°C 56% Calm Calm -- 29.94 in1013.9 mb 0.00 in0.0 mm 0.00 in/hr0.0 mm/hr 0.00 in0.0 mm
05:21 AM 30.1°F-1.1°C 16.3°F-8.7°C 56% Calm Calm -- 29.94 in1013.9 mb 0.00 in0.0 mm 0.00 in/hr0.0 mm/hr 0.00 in0.0 mm
05:20 AM 30.1°F-1.1°C 16.3°F-8.7°C 56% Calm Calm -- 29.94 in1013.9 mb 0.00 in0.0 mm 0.00 in/hr0.0 mm/hr 0.00 in0.0 mm
05:19 AM 30.1°F-1.1°C 16.3°F-8.7°C 56% Calm Calm -- 29.94 in1013.9 mb 0.00 in0.0 mm 0.00 in/hr0.0 mm/hr 0.00 in0.0 mm
05:18 AM 30.1°F-1.1°C 16.3°F-8.7°C 56% Calm Calm -- 29.94 in1013.9 mb 0.00 in0.0 mm 0.00 in/hr0.0 mm/hr 0.00 in0.0 mm
05:17 AM 30.1°F-1.1°C 16.3°F-8.7°C 56% Calm Calm -- 29.94 in1013.9 mb 0.00 in0.0 mm 0.00 in/hr0.0 mm/hr 0.00 in0.0 mm
05:16 AM 30.1°F-1.1°C 16.3°F-8.7°C 56% Calm Calm -- 29.94 in1013.9 mb 0.00 in0.0 mm 0.00 in/hr0.0 mm/hr 0.00 in0.0 mm
05:15 AM 30.3°F-0.9°C 16.5°F-8.6°C 56% Calm Calm -- 29.94 in1013.9 mb 0.00 in0.0 mm 0.00 in/hr0.0 mm/hr 0.00 in0.0 mm
05:14 AM 30.3°F-0.9°C 16.5°F-8.6°C 56% Calm Calm -- 29.94 in1013.9 mb 0.00 in0.0 mm 0.00 in/hr0.0 mm/hr 0.00 in0.0 mm
05:13 AM 30.3°F-0.9°C 16.5°F-8.6°C 56% Calm Calm -- 29.94 in1013.9 mb 0.00 in0.0 mm 0.00 in/hr0.0 mm/hr 0.00 in0.0 mm
05:12 AM 30.3°F-0.9°C 16.5°F-8.6°C 56% Calm Calm -- 29.94 in1013.9 mb 0.00 in0.0 mm 0.00 in/hr0.0 mm/hr 0.00 in0.0 mm
05:11 AM 30.3°F-0.9°C 16.5°F-8.6°C 56% Calm Calm -- 29.94 in1013.9 mb 0.00 in0.0 mm 0.00 in/hr0.0 mm/hr 0.00 in0.0 mm
05:10 AM 30.3°F-0.9°C 16.5°F-8.6°C 56% Calm Calm -- 29.94 in1013.9 mb 0.00 in0.0 mm 0.00 in/hr0.0 mm/hr 0.00 in0.0 mm
05:09 AM 30.3°F-0.9°C 16.5°F-8.6°C 56% Calm Calm -- 29.94 in1013.9 mb 0.00 in0.0 mm 0.00 in/hr0.0 mm/hr 0.00 in0.0 mm
05:08 AM 30.5°F-0.8°C 16.7°F-8.5°C 56% Calm Calm -- 29.94 in1013.9 mb 0.00 in0.0 mm 0.00 in/hr0.0 mm/hr 0.00 in0.0 mm
05:07 AM 30.5°F-0.8°C 16.7°F-8.5°C 56% Calm Calm -- 29.94 in1013.9 mb 0.00 in0.0 mm 0.00 in/hr0.0 mm/hr 0.00 in0.0 mm
05:06 AM 30.5°F-0.8°C 16.7°F-8.5°C 56% Calm Calm -- 29.94 in1013.9 mb 0.00 in0.0 mm 0.00 in/hr0.0 mm/hr 0.00 in0.0 mm
05:05 AM 30.5°F-0.8°C 16.7°F-8.5°C 56% Calm Calm -- 29.94 in1013.9 mb 0.00 in0.0 mm 0.00 in/hr0.0 mm/hr 0.00 in0.0 mm
05:04 AM 30.5°F-0.8°C 16.7°F-8.5°C 56% Calm Calm -- 29.94 in1013.9 mb 0.00 in0.0 mm 0.00 in/hr0.0 mm/hr 0.00 in0.0 mm
05:03 AM 30.5°F-0.8°C 16.7°F-8.5°C 56% Calm Calm -- 29.94 in1013.9 mb 0.00 in0.0 mm 0.00 in/hr0.0 mm/hr 0.00 in0.0 mm
05:02 AM 30.5°F-0.8°C 16.7°F-8.5°C 56% Calm Calm -- 29.94 in1013.9 mb 0.00 in0.0 mm 0.00 in/hr0.0 mm/hr 0.00 in0.0 mm
05:01 AM 30.6°F-0.8°C 16.8°F-8.4°C 56% Calm Calm -- 29.94 in1013.9 mb 0.00 in0.0 mm 0.00 in/hr0.0 mm/hr 0.00 in0.0 mm
05:00 AM 30.6°F-0.8°C 16.8°F-8.4°C 56% Calm Calm -- 29.94 in1013.9 mb 0.00 in0.0 mm 0.00 in/hr0.0 mm/hr 0.00 in0.0 mm
04:59 AM 30.6°F-0.8°C 16.8°F-8.4°C 56% Calm Calm -- 29.94 in1013.9 mb 0.00 in0.0 mm 0.00 in/hr0.0 mm/hr 0.00 in0.0 mm
04:58 AM 30.6°F-0.8°C 16.8°F-8.4°C 56% Calm Calm -- 29.94 in1013.9 mb 0.00 in0.0 mm 0.00 in/hr0.0 mm/hr 0.00 in0.0 mm
04:57 AM 30.8°F-0.7°C 17.0°F-8.3°C 56% Calm Calm -- 29.94 in1013.9 mb 0.00 in0.0 mm 0.00 in/hr0.0 mm/hr 0.00 in0.0 mm
04:56 AM 30.8°F-0.7°C 17.0°F-8.3°C 56% Calm Calm -- 29.94 in1013.9 mb 0.00 in0.0 mm 0.00 in/hr0.0 mm/hr 0.00 in0.0 mm
04:55 AM 30.8°F-0.7°C 17.0°F-8.3°C 56% Calm Calm -- 29.94 in1013.9 mb 0.00 in0.0 mm 0.00 in/hr0.0 mm/hr 0.00 in0.0 mm
04:54 AM 30.8°F-0.7°C 17.0°F-8.3°C 56% Calm Calm -- 29.94 in1013.9 mb 0.00 in0.0 mm 0.00 in/hr0.0 mm/hr 0.00 in0.0 mm
04:53 AM 30.8°F-0.7°C 17.0°F-8.3°C 56% Calm Calm -- 29.94 in1013.9 mb 0.00 in0.0 mm 0.00 in/hr0.0 mm/hr 0.00 in0.0 mm
04:52 AM 30.8°F-0.7°C 17.0°F-8.3°C 56% Calm Calm -- 29.94 in1013.9 mb 0.00 in0.0 mm 0.00 in/hr0.0 mm/hr 0.00 in0.0 mm
04:51 AM 31.0°F-0.6°C 17.2°F-8.2°C 56% Calm Calm -- 29.94 in1013.9 mb 0.00 in0.0 mm 0.00 in/hr0.0 mm/hr 0.00 in0.0 mm
04:50 AM 31.0°F-0.6°C 17.2°F-8.2°C 56% Calm Calm -- 29.94 in1013.9 mb 0.00 in0.0 mm 0.00 in/hr0.0 mm/hr 0.00 in0.0 mm
04:49 AM 31.0°F-0.6°C 17.2°F-8.2°C 56% Calm Calm -- 29.94 in1013.9 mb 0.00 in0.0 mm 0.00 in/hr0.0 mm/hr 0.00 in0.0 mm
04:48 AM 31.0°F-0.6°C 17.2°F-8.2°C 56% Calm Calm -- 29.94 in1013.9 mb 0.00 in0.0 mm 0.00 in/hr0.0 mm/hr 0.00 in0.0 mm
04:47 AM 31.0°F-0.6°C 17.2°F-8.2°C 56% Calm Calm -- 29.94 in1013.9 mb 0.00 in0.0 mm 0.00 in/hr0.0 mm/hr 0.00 in0.0 mm
04:46 AM 31.2°F-0.4°C 17.3°F-8.2°C 56% Calm Calm -- 29.94 in1013.9 mb 0.00 in0.0 mm 0.00 in/hr0.0 mm/hr 0.00 in0.0 mm
04:45 AM 31.2°F-0.4°C 17.3°F-8.2°C 56% Calm Calm -- 29.94 in1013.9 mb 0.00 in0.0 mm 0.00 in/hr0.0 mm/hr 0.00 in0.0 mm
04:44 AM 31.2°F-0.4°C 17.7°F-7.9°C 57% Calm Calm -- 29.94 in1013.9 mb 0.00 in0.0 mm 0.00 in/hr0.0 mm/hr 0.00 in0.0 mm
04:43 AM 31.2°F-0.4°C 17.7°F-7.9°C 57% Calm Calm -- 29.94 in1013.9 mb 0.00 in0.0 mm 0.00 in/hr0.0 mm/hr 0.00 in0.0 mm
04:42 AM 31.2°F-0.4°C 17.7°F-7.9°C 57% Calm Calm -- 29.94 in1013.9 mb 0.00 in0.0 mm 0.00 in/hr0.0 mm/hr 0.00 in0.0 mm
04:41 AM 31.2°F-0.4°C 17.7°F-7.9°C 57% Calm Calm -- 29.94 in1013.9 mb 0.00 in0.0 mm 0.00 in/hr0.0 mm/hr 0.00 in0.0 mm
04:40 AM 31.2°F-0.4°C 17.7°F-7.9°C 57% Calm Calm -- 29.94 in1013.9 mb 0.00 in0.0 mm 0.00 in/hr0.0 mm/hr 0.00 in0.0 mm
04:39 AM 31.2°F-0.4°C 17.7°F-7.9°C 57% Calm Calm -- 29.94 in1013.9 mb 0.00 in0.0 mm 0.00 in/hr0.0 mm/hr 0.00 in0.0 mm
04:38 AM 31.2°F-0.4°C 17.7°F-7.9°C 57% Calm Calm -- 29.94 in1013.9 mb 0.00 in0.0 mm 0.00 in/hr0.0 mm/hr 0.00 in0.0 mm
04:37 AM 31.2°F-0.4°C 17.7°F-7.9°C 57% Calm Calm -- 29.94 in1013.9 mb 0.00 in0.0 mm 0.00 in/hr0.0 mm/hr 0.00 in0.0 mm
04:36 AM 31.2°F-0.4°C 17.7°F-7.9°C 57% Calm Calm -- 29.94 in1013.9 mb 0.00 in0.0 mm 0.00 in/hr0.0 mm/hr 0.00 in0.0 mm
04:35 AM 31.2°F-0.4°C 17.7°F-7.9°C 57% Calm Calm -- 29.94 in1013.9 mb 0.00 in0.0 mm 0.00 in/hr0.0 mm/hr 0.00 in0.0 mm
04:34 AM 31.2°F-0.4°C 17.7°F-7.9°C 57% Calm Calm -- 29.94 in1013.9 mb 0.00 in0.0 mm 0.00 in/hr0.0 mm/hr 0.00 in0.0 mm
04:33 AM 31.2°F-0.4°C 17.7°F-7.9°C 57% Calm Calm -- 29.94 in1013.9 mb 0.00 in0.0 mm 0.00 in/hr0.0 mm/hr 0.00 in0.0 mm
04:32 AM 31.2°F-0.4°C 17.7°F-7.9°C 57% Calm Calm -- 29.94 in1013.9 mb 0.00 in0.0 mm 0.00 in/hr0.0 mm/hr 0.00 in0.0 mm
04:31 AM 31.0°F-0.6°C 17.6°F-8.0°C 57% Calm Calm -- 29.94 in1013.9 mb 0.00 in0.0 mm 0.00 in/hr0.0 mm/hr 0.00 in0.0 mm
04:30 AM 31.0°F-0.6°C 17.6°F-8.0°C 57% Calm Calm -- 29.94 in1013.9 mb 0.00 in0.0 mm 0.00 in/hr0.0 mm/hr 0.00 in0.0 mm
04:29 AM 31.0°F-0.6°C 17.6°F-8.0°C 57% Calm Calm -- 29.94 in1013.9 mb 0.00 in0.0 mm 0.00 in/hr0.0 mm/hr 0.00 in0.0 mm
04:28 AM 31.0°F-0.6°C 17.6°F-8.0°C 57% Calm Calm -- 29.94 in1013.9 mb 0.00 in0.0 mm 0.00 in/hr0.0 mm/hr 0.00 in0.0 mm
04:27 AM 31.0°F-0.6°C 17.6°F-8.0°C 57% Calm Calm -- 29.94 in1013.9 mb 0.00 in0.0 mm 0.00 in/hr0.0 mm/hr 0.00 in0.0 mm
04:26 AM 31.0°F-0.6°C 17.6°F-8.0°C 57% Calm Calm -- 29.94 in1013.9 mb 0.00 in0.0 mm 0.00 in/hr0.0 mm/hr 0.00 in0.0 mm
04:25 AM 31.0°F-0.6°C 17.6°F-8.0°C 57% Calm Calm -- 29.91 in1012.9 mb 0.00 in0.0 mm 0.00 in/hr0.0 mm/hr 0.00 in0.0 mm
04:24 AM 31.0°F-0.6°C 17.6°F-8.0°C 57% Calm Calm -- 29.91 in1012.9 mb 0.00 in0.0 mm 0.00 in/hr0.0 mm/hr 0.00 in0.0 mm
04:23 AM 31.0°F-0.6°C 17.6°F-8.0°C 57% Calm Calm -- 29.91 in1012.9 mb 0.00 in0.0 mm 0.00 in/hr0.0 mm/hr 0.00 in0.0 mm
04:22 AM 31.0°F-0.6°C 17.6°F-8.0°C 57% Calm Calm -- 29.91 in1012.9 mb 0.00 in0.0 mm 0.00 in/hr0.0 mm/hr 0.00 in0.0 mm
04:21 AM 31.0°F-0.6°C 17.6°F-8.0°C 57% Calm Calm -- 29.91 in1012.9 mb 0.00 in0.0 mm 0.00 in/hr0.0 mm/hr 0.00 in0.0 mm
04:20 AM 31.0°F-0.6°C 17.6°F-8.0°C 57% Calm Calm -- 29.91 in1012.9 mb 0.00 in0.0 mm 0.00 in/hr0.0 mm/hr 0.00 in0.0 mm
04:19 AM 31.0°F-0.6°C 17.6°F-8.0°C 57% Calm Calm -- 29.91 in1012.9 mb 0.00 in0.0 mm 0.00 in/hr0.0 mm/hr 0.00 in0.0 mm
04:18 AM 31.0°F-0.6°C 17.6°F-8.0°C 57% Calm Calm -- 29.91 in1012.9 mb 0.00 in0.0 mm 0.00 in/hr0.0 mm/hr 0.00 in0.0 mm
04:17 AM 31.0°F-0.6°C 17.6°F-8.0°C 57% Calm Calm -- 29.91 in1012.9 mb 0.00 in0.0 mm 0.00 in/hr0.0 mm/hr 0.00 in0.0 mm
04:16 AM 30.8°F-0.7°C 17.4°F-8.1°C 57% Calm Calm -- 29.91 in1012.9 mb 0.00 in0.0 mm 0.00 in/hr0.0 mm/hr 0.00 in0.0 mm
04:15 AM 30.8°F-0.7°C 17.4°F-8.1°C 57% Calm Calm -- 29.91 in1012.9 mb 0.00 in0.0 mm 0.00 in/hr0.0 mm/hr 0.00 in0.0 mm
04:14 AM 30.8°F-0.7°C 17.4°F-8.1°C 57% Calm Calm -- 29.91 in1012.9 mb 0.00 in0.0 mm 0.00 in/hr0.0 mm/hr 0.00 in0.0 mm
04:13 AM 30.8°F-0.7°C 17.4°F-8.1°C 57% Calm Calm -- 29.91 in1012.9 mb 0.00 in0.0 mm 0.00 in/hr0.0 mm/hr 0.00 in0.0 mm
04:12 AM 30.8°F-0.7°C 17.4°F-8.1°C 57% Calm Calm -- 29.91 in1012.9 mb 0.00 in0.0 mm 0.00 in/hr0.0 mm/hr 0.00 in0.0 mm
04:11 AM 30.8°F-0.7°C 17.4°F-8.1°C 57% Calm Calm -- 29.91 in1012.9 mb 0.00 in0.0 mm 0.00 in/hr0.0 mm/hr 0.00 in0.0 mm
04:10 AM 30.8°F-0.7°C 17.4°F-8.1°C 57% Calm Calm -- 29.94 in1013.9 mb 0.00 in0.0 mm 0.00 in/hr0.0 mm/hr 0.00 in0.0 mm
04:09 AM 30.8°F-0.7°C 17.4°F-8.1°C 57% Calm Calm -- 29.94 in1013.9 mb 0.00 in0.0 mm 0.00 in/hr0.0 mm/hr 0.00 in0.0 mm
04:08 AM 30.8°F-0.7°C 17.4°F-8.1°C 57% Calm Calm -- 29.94 in1013.9 mb 0.00 in0.0 mm 0.00 in/hr0.0 mm/hr 0.00 in0.0 mm
04:07 AM 30.8°F-0.7°C 17.4°F-8.1°C 57% Calm Calm -- 29.94 in1013.9 mb 0.00 in0.0 mm 0.00 in/hr0.0 mm/hr 0.00 in0.0 mm
04:06 AM 30.8°F-0.7°C 17.4°F-8.1°C 57% Calm Calm -- 29.94 in1013.9 mb 0.00 in0.0 mm 0.00 in/hr0.0 mm/hr 0.00 in0.0 mm
04:05 AM 30.8°F-0.7°C 17.4°F-8.1°C 57% Calm Calm -- 29.94 in1013.9 mb 0.00 in0.0 mm 0.00 in/hr0.0 mm/hr 0.00 in0.0 mm
04:04 AM 30.8°F-0.7°C 17.4°F-8.1°C 57% Calm Calm -- 29.94 in1013.9 mb 0.00 in0.0 mm 0.00 in/hr0.0 mm/hr 0.00 in0.0 mm
04:03 AM 30.8°F-0.7°C 17.4°F-8.1°C 57% Calm Calm -- 29.94 in1013.9 mb 0.00 in0.0 mm 0.00 in/hr0.0 mm/hr 0.00 in0.0 mm
04:02 AM 30.8°F-0.7°C 17.4°F-8.1°C 57% Calm Calm -- 29.94 in1013.9 mb 0.00 in0.0 mm 0.00 in/hr0.0 mm/hr 0.00 in0.0 mm
04:01 AM 30.8°F-0.7°C 17.4°F-8.1°C 57% Calm Calm -- 29.94 in1013.9 mb 0.00 in0.0 mm 0.00 in/hr0.0 mm/hr 0.00 in0.0 mm
04:00 AM 30.8°F-0.7°C 17.4°F-8.1°C 57% Calm Calm -- 29.94 in1013.9 mb 0.00 in0.0 mm 0.00 in/hr0.0 mm/hr 0.00 in0.0 mm
03:59 AM 30.8°F-0.7°C 17.4°F-8.1°C 57% Calm Calm -- 29.94 in1013.9 mb 0.00 in0.0 mm 0.00 in/hr0.0 mm/hr 0.00 in0.0 mm
03:58 AM 30.8°F-0.7°C 17.4°F-8.1°C 57% Calm Calm -- 29.94 in1013.9 mb 0.00 in0.0 mm 0.00 in/hr0.0 mm/hr 0.00 in0.0 mm
03:57 AM 30.8°F-0.7°C 17.4°F-8.1°C 57% Calm Calm -- 29.94 in1013.9 mb 0.00 in0.0 mm 0.00 in/hr0.0 mm/hr 0.00 in0.0 mm
03:56 AM 30.8°F-0.7°C 17.4°F-8.1°C 57% Calm Calm -- 29.94 in1013.9 mb 0.00 in0.0 mm 0.00 in/hr0.0 mm/hr 0.00 in0.0 mm
03:55 AM 30.8°F-0.7°C 17.4°F-8.1°C 57% Calm Calm -- 29.94 in1013.9 mb 0.00 in0.0 mm 0.00 in/hr0.0 mm/hr 0.00 in0.0 mm
03:54 AM 31.0°F-0.6°C 17.6°F-8.0°C 57% Calm Calm -- 29.94 in1013.9 mb 0.00 in0.0 mm 0.00 in/hr0.0 mm/hr 0.00 in0.0 mm
03:53 AM 31.0°F-0.6°C 17.6°F-8.0°C 57% Calm Calm -- 29.94 in1013.9 mb 0.00 in0.0 mm 0.00 in/hr0.0 mm/hr 0.00 in0.0 mm
03:52 AM 31.0°F-0.6°C 17.6°F-8.0°C 57% Calm Calm -- 29.94 in1013.9 mb 0.00 in0.0 mm 0.00 in/hr0.0 mm/hr 0.00 in0.0 mm
03:51 AM 31.0°F-0.6°C 17.6°F-8.0°C 57% Calm Calm -- 29.94 in1013.9 mb 0.00 in0.0 mm 0.00 in/hr0.0 mm/hr 0.00 in0.0 mm
03:50 AM 31.0°F-0.6°C 17.6°F-8.0°C 57% Calm Calm -- 29.94 in1013.9 mb 0.00 in0.0 mm 0.00 in/hr0.0 mm/hr 0.00 in0.0 mm
03:49 AM 31.0°F-0.6°C 17.6°F-8.0°C 57% Calm Calm -- 29.94 in1013.9 mb 0.00 in0.0 mm 0.00 in/hr0.0 mm/hr 0.00 in0.0 mm
03:48 AM 31.0°F-0.6°C 17.6°F-8.0°C 57% Calm Calm -- 29.94 in1013.9 mb 0.00 in0.0 mm 0.00 in/hr0.0 mm/hr 0.00 in0.0 mm
03:47 AM 31.0°F-0.6°C 17.6°F-8.0°C 57% Calm Calm -- 29.94 in1013.9 mb 0.00 in0.0 mm 0.00 in/hr0.0 mm/hr 0.00 in0.0 mm
03:46 AM 31.0°F-0.6°C 17.6°F-8.0°C 57% Calm Calm -- 29.94 in1013.9 mb 0.00 in0.0 mm 0.00 in/hr0.0 mm/hr 0.00 in0.0 mm
03:45 AM 31.0°F-0.6°C 17.6°F-8.0°C 57% Calm Calm -- 29.94 in1013.9 mb 0.00 in0.0 mm 0.00 in/hr0.0 mm/hr 0.00 in0.0 mm
03:44 AM 31.0°F-0.6°C 17.6°F-8.0°C 57% Calm Calm -- 29.94 in1013.9 mb 0.00 in0.0 mm 0.00 in/hr0.0 mm/hr 0.00 in0.0 mm
03:43 AM 31.0°F-0.6°C 17.6°F-8.0°C 57% Calm Calm -- 29.94 in1013.9 mb 0.00 in0.0 mm 0.00 in/hr0.0 mm/hr 0.00 in0.0 mm
03:42 AM 31.0°F-0.6°C 17.6°F-8.0°C 57% Calm Calm -- 29.94 in1013.9 mb 0.00 in0.0 mm 0.00 in/hr0.0 mm/hr 0.00 in0.0 mm
03:41 AM 31.0°F-0.6°C 17.6°F-8.0°C 57% Calm Calm -- 29.94 in1013.9 mb 0.00 in0.0 mm 0.00 in/hr0.0 mm/hr 0.00 in0.0 mm
03:40 AM 31.0°F-0.6°C 17.6°F-8.0°C 57% Calm Calm -- 29.94 in1013.9 mb 0.00 in0.0 mm 0.00 in/hr0.0 mm/hr 0.00 in0.0 mm
03:39 AM 31.0°F-0.6°C 17.6°F-8.0°C 57% Calm Calm -- 29.94 in1013.9 mb 0.00 in0.0 mm 0.00 in/hr0.0 mm/hr 0.00 in0.0 mm
03:38 AM 31.0°F-0.6°C 17.6°F-8.0°C 57% Calm Calm -- 29.94 in1013.9 mb 0.00 in0.0 mm 0.00 in/hr0.0 mm/hr 0.00 in0.0 mm
03:37 AM 31.0°F-0.6°C 17.6°F-8.0°C 57% Calm Calm -- 29.94 in1013.9 mb 0.00 in0.0 mm 0.00 in/hr0.0 mm/hr 0.00 in0.0 mm
03:36 AM 31.0°F-0.6°C 17.6°F-8.0°C 57% Calm Calm -- 29.94 in1013.9 mb 0.00 in0.0 mm 0.00 in/hr0.0 mm/hr 0.00 in0.0 mm
03:35 AM 31.0°F-0.6°C 17.6°F-8.0°C 57% Calm Calm -- 29.94 in1013.9 mb 0.00 in0.0 mm 0.00 in/hr0.0 mm/hr 0.00 in0.0 mm
03:34 AM 31.0°F-0.6°C 17.6°F-8.0°C 57% Calm Calm -- 29.94 in1013.9 mb 0.00 in0.0 mm 0.00 in/hr0.0 mm/hr 0.00 in0.0 mm
03:33 AM 31.0°F-0.6°C 17.6°F-8.0°C 57% Calm Calm -- 29.94 in1013.9 mb 0.00 in0.0 mm 0.00 in/hr0.0 mm/hr 0.00 in0.0 mm
03:32 AM 31.0°F-0.6°C 17.6°F-8.0°C 57% Calm Calm -- 29.94 in1013.9 mb 0.00 in0.0 mm 0.00 in/hr0.0 mm/hr 0.00 in0.0 mm
03:31 AM 31.0°F-0.6°C 17.6°F-8.0°C 57% Calm Calm -- 29.94 in1013.9 mb 0.00 in0.0 mm 0.00 in/hr0.0 mm/hr 0.00 in0.0 mm
03:30 AM 31.0°F-0.6°C 17.6°F-8.0°C 57% Calm Calm -- 29.94 in1013.9 mb 0.00 in0.0 mm 0.00 in/hr0.0 mm/hr 0.00 in0.0 mm
03:29 AM 31.0°F-0.6°C 17.6°F-8.0°C 57% Calm Calm -- 29.94 in1013.9 mb 0.00 in0.0 mm 0.00 in/hr0.0 mm/hr 0.00 in0.0 mm
03:28 AM 31.0°F-0.6°C 17.6°F-8.0°C 57% Calm Calm -- 29.94 in1013.9 mb 0.00 in0.0 mm 0.00 in/hr0.0 mm/hr 0.00 in0.0 mm
03:27 AM 31.0°F-0.6°C 17.6°F-8.0°C 57% Calm Calm -- 29.94 in1013.9 mb 0.00 in0.0 mm 0.00 in/hr0.0 mm/hr 0.00 in0.0 mm
03:26 AM 31.0°F-0.6°C 17.6°F-8.0°C 57% Calm Calm -- 29.94 in1013.9 mb 0.00 in0.0 mm 0.00 in/hr0.0 mm/hr 0.00 in0.0 mm
03:25 AM 31.0°F-0.6°C 17.6°F-8.0°C 57% Calm Calm -- 29.94 in1013.9 mb 0.00 in0.0 mm 0.00 in/hr0.0 mm/hr 0.00 in0.0 mm
03:24 AM 31.0°F-0.6°C 17.6°F-8.0°C 57% Calm Calm -- 29.94 in1013.9 mb 0.00 in0.0 mm 0.00 in/hr0.0 mm/hr 0.00 in0.0 mm
03:23 AM 31.0°F-0.6°C 17.6°F-8.0°C 57% Calm Calm -- 29.94 in1013.9 mb 0.00 in0.0 mm 0.00 in/hr0.0 mm/hr 0.00 in0.0 mm
03:22 AM 31.0°F-0.6°C 17.6°F-8.0°C 57% Calm Calm -- 29.94 in1013.9 mb 0.00 in0.0 mm 0.00 in/hr0.0 mm/hr 0.00 in0.0 mm
03:21 AM 31.0°F-0.6°C 17.6°F-8.0°C 57% Calm Calm -- 29.94 in1013.9 mb 0.00 in0.0 mm 0.00 in/hr0.0 mm/hr 0.00 in0.0 mm
03:20 AM 31.0°F-0.6°C 17.6°F-8.0°C 57% Calm Calm -- 29.94 in1013.9 mb 0.00 in0.0 mm 0.00 in/hr0.0 mm/hr 0.00 in0.0 mm
03:19 AM 31.0°F-0.6°C 17.6°F-8.0°C 57% Calm Calm -- 29.94 in1013.9 mb 0.00 in0.0 mm 0.00 in/hr0.0 mm/hr 0.00 in0.0 mm
03:18 AM 31.0°F-0.6°C 17.6°F-8.0°C 57% Calm Calm -- 29.94 in1013.9 mb 0.00 in0.0 mm 0.00 in/hr0.0 mm/hr 0.00 in0.0 mm
03:17 AM 31.0°F-0.6°C 17.6°F-8.0°C 57% Calm Calm -- 29.94 in1013.9 mb 0.00 in0.0 mm 0.00 in/hr0.0 mm/hr 0.00 in0.0 mm
03:16 AM 31.0°F-0.6°C 17.6°F-8.0°C 57% Calm Calm -- 29.94 in1013.9 mb 0.00 in0.0 mm 0.00 in/hr0.0 mm/hr 0.00 in0.0 mm
03:15 AM 31.0°F-0.6°C 17.6°F-8.0°C 57% Calm Calm -- 29.94 in1013.9 mb 0.00 in0.0 mm 0.00 in/hr0.0 mm/hr 0.00 in0.0 mm
03:14 AM 31.0°F-0.6°C 17.6°F-8.0°C 57% Calm Calm -- 29.94 in1013.9 mb 0.00 in0.0 mm 0.00 in/hr0.0 mm/hr 0.00 in0.0 mm
03:13 AM 31.0°F-0.6°C 17.6°F-8.0°C 57% Calm Calm -- 29.94 in1013.9 mb 0.00 in0.0 mm 0.00 in/hr0.0 mm/hr 0.00 in0.0 mm
03:12 AM 31.0°F-0.6°C 17.6°F-8.0°C 57% Calm Calm -- 29.94 in1013.9 mb 0.00 in0.0 mm 0.00 in/hr0.0 mm/hr 0.00 in0.0 mm
03:11 AM 31.0°F-0.6°C 17.6°F-8.0°C 57% Calm Calm -- 29.94 in1013.9 mb 0.00 in0.0 mm 0.00 in/hr0.0 mm/hr 0.00 in0.0 mm
03:10 AM 31.0°F-0.6°C 17.6°F-8.0°C 57% Calm Calm -- 29.94 in1013.9 mb 0.00 in0.0 mm 0.00 in/hr0.0 mm/hr 0.00 in0.0 mm
03:09 AM 31.0°F-0.6°C 17.6°F-8.0°C 57% Calm Calm -- 29.94 in1013.9 mb 0.00 in0.0 mm 0.00 in/hr0.0 mm/hr 0.00 in0.0 mm
03:08 AM 31.0°F-0.6°C 17.6°F-8.0°C 57% Calm Calm -- 29.94 in1013.9 mb 0.00 in0.0 mm 0.00 in/hr0.0 mm/hr 0.00 in0.0 mm
03:07 AM 31.0°F-0.6°C 17.6°F-8.0°C 57% Calm Calm -- 29.94 in1013.9 mb 0.00 in0.0 mm 0.00 in/hr0.0 mm/hr 0.00 in0.0 mm
03:06 AM 31.0°F-0.6°C 17.6°F-8.0°C 57% Calm Calm -- 29.94 in1013.9 mb 0.00 in0.0 mm 0.00 in/hr0.0 mm/hr 0.00 in0.0 mm
03:05 AM 31.0°F-0.6°C 17.6°F-8.0°C 57% Calm Calm -- 29.94 in1013.9 mb 0.00 in0.0 mm 0.00 in/hr0.0 mm/hr 0.00 in0.0 mm
03:04 AM 31.0°F-0.6°C 17.6°F-8.0°C 57% Calm Calm -- 29.94 in1013.9 mb 0.00 in0.0 mm 0.00 in/hr0.0 mm/hr 0.00 in0.0 mm
03:03 AM 31.0°F-0.6°C 17.6°F-8.0°C 57% Calm Calm -- 29.94 in1013.9 mb 0.00 in0.0 mm 0.00 in/hr0.0 mm/hr 0.00 in0.0 mm
03:02 AM 31.0°F-0.6°C 17.6°F-8.0°C 57% Calm Calm -- 29.94 in1013.9 mb 0.00 in0.0 mm 0.00 in/hr0.0 mm/hr 0.00 in0.0 mm
03:01 AM 31.0°F-0.6°C 17.6°F-8.0°C 57% Calm Calm -- 29.94 in1013.9 mb 0.00 in0.0 mm 0.00 in/hr0.0 mm/hr 0.00 in0.0 mm
03:00 AM 31.0°F-0.6°C 17.6°F-8.0°C 57% Calm Calm -- 29.94 in1013.9 mb 0.00 in0.0 mm 0.00 in/hr0.0 mm/hr 0.00 in0.0 mm
02:59 AM 31.0°F-0.6°C 17.6°F-8.0°C 57% Calm Calm -- 29.94 in1013.9 mb 0.00 in0.0 mm 0.00 in/hr0.0 mm/hr 0.00 in0.0 mm
02:58 AM 30.8°F-0.7°C 17.4°F-8.1°C 57% Calm Calm -- 29.94 in1013.9 mb 0.00 in0.0 mm 0.00 in/hr0.0 mm/hr 0.00 in0.0 mm
02:57 AM 30.8°F-0.7°C 17.4°F-8.1°C 57% Calm Calm -- 29.94 in1013.9 mb 0.00 in0.0 mm 0.00 in/hr0.0 mm/hr 0.00 in0.0 mm
02:56 AM 30.8°F-0.7°C 17.4°F-8.1°C 57% Calm Calm -- 29.94 in1013.9 mb 0.00 in0.0 mm 0.00 in/hr0.0 mm/hr 0.00 in0.0 mm
02:55 AM 30.8°F-0.7°C 17.4°F-8.1°C 57% Calm Calm -- 29.97 in1014.9 mb 0.00 in0.0 mm 0.00 in/hr0.0 mm/hr 0.00 in0.0 mm
02:54 AM 30.8°F-0.7°C 17.4°F-8.1°C 57% Calm Calm -- 29.97 in1014.9 mb 0.00 in0.0 mm 0.00 in/hr0.0 mm/hr 0.00 in0.0 mm
02:53 AM 30.8°F-0.7°C 17.4°F-8.1°C 57% Calm Calm -- 29.97 in1014.9 mb 0.00 in0.0 mm 0.00 in/hr0.0 mm/hr 0.00 in0.0 mm
02:52 AM 30.8°F-0.7°C 17.4°F-8.1°C 57% Calm Calm -- 29.97 in1014.9 mb 0.00 in0.0 mm 0.00 in/hr0.0 mm/hr 0.00 in0.0 mm
02:51 AM 30.8°F-0.7°C 17.4°F-8.1°C 57% Calm Calm -- 29.97 in1014.9 mb 0.00 in0.0 mm 0.00 in/hr0.0 mm/hr 0.00 in0.0 mm
02:50 AM 30.8°F-0.7°C 17.4°F-8.1°C 57% Calm Calm -- 29.97 in1014.9 mb 0.00 in0.0 mm 0.00 in/hr0.0 mm/hr 0.00 in0.0 mm
02:49 AM 30.8°F-0.7°C 17.4°F-8.1°C 57% Calm Calm -- 29.97 in1014.9 mb 0.00 in0.0 mm 0.00 in/hr0.0 mm/hr 0.00 in0.0 mm
02:48 AM 30.8°F-0.7°C 17.4°F-8.1°C 57% Calm Calm -- 29.97 in1014.9 mb 0.00 in0.0 mm 0.00 in/hr0.0 mm/hr 0.00 in0.0 mm
02:47 AM 30.8°F-0.7°C 17.4°F-8.1°C 57% Calm Calm -- 29.97 in1014.9 mb 0.00 in0.0 mm 0.00 in/hr0.0 mm/hr 0.00 in0.0 mm
02:46 AM 30.8°F-0.7°C 17.4°F-8.1°C 57% Calm Calm -- 29.97 in1014.9 mb 0.00 in0.0 mm 0.00 in/hr0.0 mm/hr 0.00 in0.0 mm
02:45 AM 30.8°F-0.7°C 17.4°F-8.1°C 57% Calm Calm -- 29.97 in1014.9 mb 0.00 in0.0 mm 0.00 in/hr0.0 mm/hr 0.00 in0.0 mm
02:44 AM 30.8°F-0.7°C 17.4°F-8.1°C 57% Calm Calm -- 29.97 in1014.9 mb 0.00 in0.0 mm 0.00 in/hr0.0 mm/hr 0.00 in0.0 mm
02:43 AM 30.8°F-0.7°C 17.4°F-8.1°C 57% Calm Calm -- 29.97 in1014.9 mb 0.00 in0.0 mm 0.00 in/hr0.0 mm/hr 0.00 in0.0 mm
02:42 AM 30.8°F-0.7°C 17.4°F-8.1°C 57% Calm Calm -- 29.97 in1014.9 mb 0.00 in0.0 mm 0.00 in/hr0.0 mm/hr 0.00 in0.0 mm
02:41 AM 30.6°F-0.8°C 17.2°F-8.2°C 57% Calm Calm -- 29.97 in1014.9 mb 0.00 in0.0 mm 0.00 in/hr0.0 mm/hr 0.00 in0.0 mm
02:40 AM 30.6°F-0.8°C 17.2°F-8.2°C 57% Calm Calm -- 29.97 in1014.9 mb 0.00 in0.0 mm 0.00 in/hr0.0 mm/hr 0.00 in0.0 mm
02:39 AM 30.6°F-0.8°C 17.2°F-8.2°C 57% Calm Calm -- 29.97 in1014.9 mb 0.00 in0.0 mm 0.00 in/hr0.0 mm/hr 0.00 in0.0 mm
02:38 AM 30.6°F-0.8°C 17.2°F-8.2°C 57% Calm Calm -- 29.97 in1014.9 mb 0.00 in0.0 mm 0.00 in/hr0.0 mm/hr 0.00 in0.0 mm
02:37 AM 30.6°F-0.8°C 17.2°F-8.2°C 57% Calm Calm -- 29.97 in1014.9 mb 0.00 in0.0 mm 0.00 in/hr0.0 mm/hr 0.00 in0.0 mm
02:36 AM 30.6°F-0.8°C 17.2°F-8.2°C 57% Calm Calm -- 29.97 in1014.9 mb 0.00 in0.0 mm 0.00 in/hr0.0 mm/hr 0.00 in0.0 mm
02:35 AM 30.6°F-0.8°C 17.2°F-8.2°C 57% Calm Calm -- 29.97 in1014.9 mb 0.00 in0.0 mm 0.00 in/hr0.0 mm/hr 0.00 in0.0 mm
02:34 AM 30.6°F-0.8°C 17.2°F-8.2°C 57% Calm Calm -- 29.97 in1014.9 mb 0.00 in0.0 mm 0.00 in/hr0.0 mm/hr 0.00 in0.0 mm
02:33 AM 30.6°F-0.8°C 17.2°F-8.2°C 57% Calm Calm -- 29.97 in1014.9 mb 0.00 in0.0 mm 0.00 in/hr0.0 mm/hr 0.00 in0.0 mm
02:32 AM 30.6°F-0.8°C 17.2°F-8.2°C 57% Calm Calm -- 29.97 in1014.9 mb 0.00 in0.0 mm 0.00 in/hr0.0 mm/hr 0.00 in0.0 mm
02:31 AM 30.6°F-0.8°C 17.2°F-8.2°C 57% Calm Calm -- 29.97 in1014.9 mb 0.00 in0.0 mm 0.00 in/hr0.0 mm/hr 0.00 in0.0 mm
02:30 AM 30.6°F-0.8°C 17.2°F-8.2°C 57% Calm Calm -- 29.97 in1014.9 mb 0.00 in0.0 mm 0.00 in/hr0.0 mm/hr 0.00 in0.0 mm
02:29 AM 30.6°F-0.8°C 17.2°F-8.2°C 57% Calm Calm -- 29.97 in1014.9 mb 0.00 in0.0 mm 0.00 in/hr0.0 mm/hr 0.00 in0.0 mm
02:28 AM 30.6°F-0.8°C 17.2°F-8.2°C 57% Calm Calm -- 29.97 in1014.9 mb 0.00 in0.0 mm 0.00 in/hr0.0 mm/hr 0.00 in0.0 mm
02:27 AM 30.6°F-0.8°C 17.2°F-8.2°C 57% Calm Calm -- 29.97 in1014.9 mb 0.00 in0.0 mm 0.00 in/hr0.0 mm/hr 0.00 in0.0 mm
02:26 AM 30.6°F-0.8°C 17.2°F-8.2°C 57% Calm Calm -- 29.97 in1014.9 mb 0.00 in0.0 mm 0.00 in/hr0.0 mm/hr 0.00 in0.0 mm
02:25 AM 30.6°F-0.8°C 17.2°F-8.2°C 57% Calm Calm -- 29.97 in1014.9 mb 0.00 in0.0 mm 0.00 in/hr0.0 mm/hr 0.00 in0.0 mm
02:24 AM 30.6°F-0.8°C 17.2°F-8.2°C 57% Calm Calm -- 29.97 in1014.9 mb 0.00 in0.0 mm 0.00 in/hr0.0 mm/hr 0.00 in0.0 mm
02:23 AM 30.6°F-0.8°C 17.2°F-8.2°C 57% Calm Calm -- 29.97 in1014.9 mb 0.00 in0.0 mm 0.00 in/hr0.0 mm/hr 0.00 in0.0 mm
02:22 AM 30.6°F-0.8°C 17.2°F-8.2°C 57% Calm Calm -- 29.97 in1014.9 mb 0.00 in0.0 mm 0.00 in/hr0.0 mm/hr 0.00 in0.0 mm
02:21 AM 30.6°F-0.8°C 17.2°F-8.2°C 57% Calm Calm -- 29.97 in1014.9 mb 0.00 in0.0 mm 0.00 in/hr0.0 mm/hr 0.00 in0.0 mm
02:20 AM 30.6°F-0.8°C 17.2°F-8.2°C 57% Calm Calm -- 29.97 in1014.9 mb 0.00 in0.0 mm 0.00 in/hr0.0 mm/hr 0.00 in0.0 mm
02:19 AM 30.6°F-0.8°C 17.2°F-8.2°C 57% Calm Calm -- 29.97 in1014.9 mb 0.00 in0.0 mm 0.00 in/hr0.0 mm/hr 0.00 in0.0 mm
02:18 AM 30.6°F-0.8°C 17.2°F-8.2°C 57% Calm Calm -- 29.97 in1014.9 mb 0.00 in0.0 mm 0.00 in/hr0.0 mm/hr 0.00 in0.0 mm
02:17 AM 30.6°F-0.8°C 17.2°F-8.2°C 57% Calm Calm -- 29.97 in1014.9 mb 0.00 in0.0 mm 0.00 in/hr0.0 mm/hr 0.00 in0.0 mm
02:16 AM 30.6°F-0.8°C 17.2°F-8.2°C 57% Calm Calm -- 29.97 in1014.9 mb 0.00 in0.0 mm 0.00 in/hr0.0 mm/hr 0.00 in0.0 mm
02:15 AM 30.6°F-0.8°C 17.2°F-8.2°C 57% Calm Calm -- 29.97 in1014.9 mb 0.00 in0.0 mm 0.00 in/hr0.0 mm/hr 0.00 in0.0 mm
02:14 AM 30.6°F-0.8°C 17.2°F-8.2°C 57% Calm Calm -- 29.97 in1014.9 mb 0.00 in0.0 mm 0.00 in/hr0.0 mm/hr 0.00 in0.0 mm
02:13 AM 30.6°F-0.8°C 17.2°F-8.2°C 57% Calm Calm -- 29.97 in1014.9 mb 0.00 in0.0 mm 0.00 in/hr0.0 mm/hr 0.00 in0.0 mm
02:12 AM 30.6°F-0.8°C 17.2°F-8.2°C 57% Calm Calm -- 29.97 in1014.9 mb 0.00 in0.0 mm 0.00 in/hr0.0 mm/hr 0.00 in0.0 mm
02:11 AM 30.6°F-0.8°C 17.2°F-8.2°C 57% Calm Calm -- 29.97 in1014.9 mb 0.00 in0.0 mm 0.00 in/hr0.0 mm/hr 0.00 in0.0 mm
02:10 AM 30.6°F-0.8°C 17.2°F-8.2°C 57% Calm Calm -- 29.97 in1014.9 mb 0.00 in0.0 mm 0.00 in/hr0.0 mm/hr 0.00 in0.0 mm
02:09 AM 30.6°F-0.8°C 17.2°F-8.2°C 57% Calm Calm -- 29.97 in1014.9 mb 0.00 in0.0 mm 0.00 in/hr0.0 mm/hr 0.00 in0.0 mm
02:08 AM 30.6°F-0.8°C 17.2°F-8.2°C 57% Calm Calm -- 29.97 in1014.9 mb 0.00 in0.0 mm 0.00 in/hr0.0 mm/hr 0.00 in0.0 mm
02:07 AM 30.6°F-0.8°C 17.2°F-8.2°C 57% Calm Calm -- 29.97 in1014.9 mb 0.00 in0.0 mm 0.00 in/hr0.0 mm/hr 0.00 in0.0 mm
02:06 AM 30.6°F-0.8°C 17.2°F-8.2°C 57% Calm Calm -- 29.97 in1014.9 mb 0.00 in0.0 mm 0.00 in/hr0.0 mm/hr 0.00 in0.0 mm
02:05 AM 30.6°F-0.8°C 17.2°F-8.2°C 57% Calm Calm -- 29.97 in1014.9 mb 0.00 in0.0 mm 0.00 in/hr0.0 mm/hr 0.00 in0.0 mm
02:04 AM 30.5°F-0.8°C 17.1°F-8.3°C 57% Calm Calm -- 29.97 in1014.9 mb 0.00 in0.0 mm 0.00 in/hr0.0 mm/hr 0.00 in0.0 mm
02:03 AM 30.5°F-0.8°C 17.1°F-8.3°C 57% Calm Calm -- 29.97 in1014.9 mb 0.00 in0.0 mm 0.00 in/hr0.0 mm/hr 0.00 in0.0 mm
02:02 AM 30.5°F-0.8°C 17.1°F-8.3°C 57% Calm Calm -- 29.97 in1014.9 mb 0.00 in0.0 mm 0.00 in/hr0.0 mm/hr 0.00 in0.0 mm
02:01 AM 30.5°F-0.8°C 17.1°F-8.3°C 57% Calm Calm -- 29.97 in1014.9 mb 0.00 in0.0 mm 0.00 in/hr0.0 mm/hr 0.00 in0.0 mm
02:00 AM 30.5°F-0.8°C 17.1°F-8.3°C 57% Calm Calm -- 29.97 in1014.9 mb 0.00 in0.0 mm 0.00 in/hr0.0 mm/hr 0.00 in0.0 mm
01:59 AM 30.5°F-0.8°C 17.1°F-8.3°C 57% Calm Calm -- 29.97 in1014.9 mb 0.00 in0.0 mm 0.00 in/hr0.0 mm/hr 0.00 in0.0 mm
01:58 AM 30.5°F-0.8°C 17.1°F-8.3°C 57% Calm Calm -- 29.97 in1014.9 mb 0.00 in0.0 mm 0.00 in/hr0.0 mm/hr 0.00 in0.0 mm
01:57 AM 30.5°F-0.8°C 17.1°F-8.3°C 57% Calm Calm -- 29.97 in1014.9 mb 0.00 in0.0 mm 0.00 in/hr0.0 mm/hr 0.00 in0.0 mm
01:56 AM 30.5°F-0.8°C 17.1°F-8.3°C 57% Calm Calm -- 29.97 in1014.9 mb 0.00 in0.0 mm 0.00 in/hr0.0 mm/hr 0.00 in0.0 mm
01:55 AM 30.5°F-0.8°C 17.1°F-8.3°C 57% Calm Calm -- 30.00 in1015.9 mb 0.00 in0.0 mm 0.00 in/hr0.0 mm/hr 0.00 in0.0 mm
01:54 AM 30.5°F-0.8°C 17.1°F-8.3°C 57% Calm Calm -- 30.00 in1015.9 mb 0.00 in0.0 mm 0.00 in/hr0.0 mm/hr 0.00 in0.0 mm
01:53 AM 30.5°F-0.8°C 17.1°F-8.3°C 57% Calm Calm -- 30.00 in1015.9 mb 0.00 in0.0 mm 0.00 in/hr0.0 mm/hr 0.00 in0.0 mm
01:52 AM 30.5°F-0.8°C 17.1°F-8.3°C 57% Calm Calm -- 30.00 in1015.9 mb 0.00 in0.0 mm 0.00 in/hr0.0 mm/hr 0.00 in0.0 mm
01:51 AM 30.5°F-0.8°C 17.1°F-8.3°C 57% Calm Calm -- 30.00 in1015.9 mb 0.00 in0.0 mm 0.00 in/hr0.0 mm/hr 0.00 in0.0 mm
01:50 AM 30.5°F-0.8°C 17.1°F-8.3°C 57% Calm Calm -- 30.00 in1015.9 mb 0.00 in0.0 mm 0.00 in/hr0.0 mm/hr 0.00 in0.0 mm
01:49 AM 30.3°F-0.9°C 16.9°F-8.4°C 57% Calm Calm -- 30.00 in1015.9 mb 0.00 in0.0 mm 0.00 in/hr0.0 mm/hr 0.00 in0.0 mm
01:48 AM 30.3°F-0.9°C 16.9°F-8.4°C 57% Calm Calm -- 30.00 in1015.9 mb 0.00 in0.0 mm 0.00 in/hr0.0 mm/hr 0.00 in0.0 mm
01:47 AM 30.3°F-0.9°C 16.9°F-8.4°C 57% Calm Calm -- 30.00 in1015.9 mb 0.00 in0.0 mm 0.00 in/hr0.0 mm/hr 0.00 in0.0 mm
01:46 AM 30.3°F-0.9°C 16.9°F-8.4°C 57% Calm Calm -- 30.00 in1015.9 mb 0.00 in0.0 mm 0.00 in/hr0.0 mm/hr 0.00 in0.0 mm
01:45 AM 30.3°F-0.9°C 16.9°F-8.4°C 57% Calm Calm -- 30.00 in1015.9 mb 0.00 in0.0 mm 0.00 in/hr0.0 mm/hr 0.00 in0.0 mm
01:44 AM 30.3°F-0.9°C 16.9°F-8.4°C 57% Calm Calm -- 30.00 in1015.9 mb 0.00 in0.0 mm 0.00 in/hr0.0 mm/hr 0.00 in0.0 mm
01:43 AM 30.1°F-1.1°C 16.7°F-8.5°C 57% Calm Calm -- 30.00 in1015.9 mb 0.00 in0.0 mm 0.00 in/hr0.0 mm/hr 0.00 in0.0 mm
01:42 AM 30.1°F-1.1°C 16.7°F-8.5°C 57% Calm Calm -- 30.00 in1015.9 mb 0.00 in0.0 mm 0.00 in/hr0.0 mm/hr 0.00 in0.0 mm
01:41 AM 30.1°F-1.1°C 16.7°F-8.5°C 57% Calm Calm -- 30.00 in1015.9 mb 0.00 in0.0 mm 0.00 in/hr0.0 mm/hr 0.00 in0.0 mm
01:40 AM 30.1°F-1.1°C 16.7°F-8.5°C 57% Calm Calm -- 30.00 in1015.9 mb 0.00 in0.0 mm 0.00 in/hr0.0 mm/hr 0.00 in0.0 mm
01:39 AM 30.1°F-1.1°C 16.7°F-8.5°C 57% Calm Calm -- 30.00 in1015.9 mb 0.00 in0.0 mm 0.00 in/hr0.0 mm/hr 0.00 in0.0 mm
01:38 AM 30.1°F-1.1°C 16.7°F-8.5°C 57% Calm Calm -- 30.00 in1015.9 mb 0.00 in0.0 mm 0.00 in/hr0.0 mm/hr 0.00 in0.0 mm
01:37 AM 30.1°F-1.1°C 16.7°F-8.5°C 57% Calm Calm -- 30.00 in1015.9 mb 0.00 in0.0 mm 0.00 in/hr0.0 mm/hr 0.00 in0.0 mm
01:36 AM 30.1°F-1.1°C 16.7°F-8.5°C 57% Calm Calm -- 30.00 in1015.9 mb 0.00 in0.0 mm 0.00 in/hr0.0 mm/hr 0.00 in0.0 mm
01:35 AM 30.1°F-1.1°C 16.7°F-8.5°C 57% Calm Calm -- 30.00 in1015.9 mb 0.00 in0.0 mm 0.00 in/hr0.0 mm/hr 0.00 in0.0 mm
01:34 AM 30.1°F-1.1°C 16.7°F-8.5°C 57% Calm Calm -- 30.00 in1015.9 mb 0.00 in0.0 mm 0.00 in/hr0.0 mm/hr 0.00 in0.0 mm
01:33 AM 30.1°F-1.1°C 16.7°F-8.5°C 57% Calm Calm -- 30.00 in1015.9 mb 0.00 in0.0 mm 0.00 in/hr0.0 mm/hr 0.00 in0.0 mm
01:32 AM 30.1°F-1.1°C 16.7°F-8.5°C 57% Calm Calm -- 30.00 in1015.9 mb 0.00 in0.0 mm 0.00 in/hr0.0 mm/hr 0.00 in0.0 mm
01:31 AM 30.1°F-1.1°C 16.7°F-8.5°C 57% Calm Calm -- 30.00 in1015.9 mb 0.00 in0.0 mm 0.00 in/hr0.0 mm/hr 0.00 in0.0 mm
01:30 AM 30.1°F-1.1°C 16.3°F-8.7°C 56% Calm Calm -- 30.00 in1015.9 mb 0.00 in0.0 mm 0.00 in/hr0.0 mm/hr 0.00 in0.0 mm
01:29 AM 30.1°F-1.1°C 16.3°F-8.7°C 56% Calm Calm -- 30.00 in1015.9 mb 0.00 in0.0 mm 0.00 in/hr0.0 mm/hr 0.00 in0.0 mm
01:28 AM 29.9°F-1.2°C 16.1°F-8.8°C 56% Calm Calm -- 30.00 in1015.9 mb 0.00 in0.0 mm 0.00 in/hr0.0 mm/hr 0.00 in0.0 mm
01:27 AM 29.9°F-1.2°C 16.1°F-8.8°C 56% Calm Calm -- 30.00 in1015.9 mb 0.00 in0.0 mm 0.00 in/hr0.0 mm/hr 0.00 in0.0 mm
01:26 AM 29.9°F-1.2°C 16.1°F-8.8°C 56% Calm Calm -- 30.00 in1015.9 mb 0.00 in0.0 mm 0.00 in/hr0.0 mm/hr 0.00 in0.0 mm
01:25 AM 29.9°F-1.2°C 16.1°F-8.8°C 56% Calm Calm -- 30.00 in1015.9 mb 0.00 in0.0 mm 0.00 in/hr0.0 mm/hr 0.00 in0.0 mm
01:24 AM 29.9°F-1.2°C 16.1°F-8.8°C 56% Calm Calm -- 30.00 in1015.9 mb 0.00 in0.0 mm 0.00 in/hr0.0 mm/hr 0.00 in0.0 mm
01:23 AM 29.9°F-1.2°C 16.1°F-8.8°C 56% Calm Calm -- 30.00 in1015.9 mb 0.00 in0.0 mm 0.00 in/hr0.0 mm/hr 0.00 in0.0 mm
01:22 AM 29.9°F-1.2°C 16.1°F-8.8°C 56% Calm Calm -- 30.00 in1015.9 mb 0.00 in0.0 mm 0.00 in/hr0.0 mm/hr 0.00 in0.0 mm
01:21 AM 29.9°F-1.2°C 16.1°F-8.8°C 56% Calm Calm -- 30.00 in1015.9 mb 0.00 in0.0 mm 0.00 in/hr0.0 mm/hr 0.00 in0.0 mm
01:20 AM 29.7°F-1.3°C 16.0°F-8.9°C 56% Calm Calm -- 30.00 in1015.9 mb 0.00 in0.0 mm 0.00 in/hr0.0 mm/hr 0.00 in0.0 mm
01:19 AM 29.7°F-1.3°C 16.0°F-8.9°C 56% Calm Calm -- 30.00 in1015.9 mb 0.00 in0.0 mm 0.00 in/hr0.0 mm/hr 0.00 in0.0 mm
01:18 AM 29.7°F-1.3°C 16.0°F-8.9°C 56% Calm Calm -- 30.00 in1015.9 mb 0.00 in0.0 mm 0.00 in/hr0.0 mm/hr 0.00 in0.0 mm
01:17 AM 29.7°F-1.3°C 16.0°F-8.9°C 56% Calm Calm -- 30.00 in1015.9 mb 0.00 in0.0 mm 0.00 in/hr0.0 mm/hr 0.00 in0.0 mm
01:16 AM 29.7°F-1.3°C 16.0°F-8.9°C 56% Calm Calm -- 30.00 in1015.9 mb 0.00 in0.0 mm 0.00 in/hr0.0 mm/hr 0.00 in0.0 mm
01:15 AM 29.7°F-1.3°C 16.0°F-8.9°C 56% Calm Calm -- 30.00 in1015.9 mb 0.00 in0.0 mm 0.00 in/hr0.0 mm/hr 0.00 in0.0 mm
01:14 AM 29.7°F-1.3°C 16.0°F-8.9°C 56% Calm Calm -- 30.00 in1015.9 mb 0.00 in0.0 mm 0.00 in/hr0.0 mm/hr 0.00 in0.0 mm
01:13 AM 29.7°F-1.3°C 16.0°F-8.9°C 56% Calm Calm -- 30.00 in1015.9 mb 0.00 in0.0 mm 0.00 in/hr0.0 mm/hr 0.00 in0.0 mm
01:12 AM 29.7°F-1.3°C 16.0°F-8.9°C 56% Calm Calm -- 30.00 in1015.9 mb 0.00 in0.0 mm 0.00 in/hr0.0 mm/hr 0.00 in0.0 mm
01:11 AM 29.7°F-1.3°C 16.0°F-8.9°C 56% Calm Calm -- 30.00 in1015.9 mb 0.00 in0.0 mm 0.00 in/hr0.0 mm/hr 0.00 in0.0 mm
01:10 AM 29.7°F-1.3°C 16.0°F-8.9°C 56% Calm Calm -- 30.00 in1015.9 mb 0.00 in0.0 mm 0.00 in/hr0.0 mm/hr 0.00 in0.0 mm
01:09 AM 29.7°F-1.3°C 16.0°F-8.9°C 56% Calm Calm -- 30.00 in1015.9 mb 0.00 in0.0 mm 0.00 in/hr0.0 mm/hr 0.00 in0.0 mm
01:08 AM 29.6°F-1.3°C 15.8°F-9.0°C 56% Calm Calm -- 30.00 in1015.9 mb 0.00 in0.0 mm 0.00 in/hr0.0 mm/hr 0.00 in0.0 mm
01:07 AM 29.6°F-1.3°C 15.8°F-9.0°C 56% Calm Calm -- 30.00 in1015.9 mb 0.00 in0.0 mm 0.00 in/hr0.0 mm/hr 0.00 in0.0 mm
01:06 AM 29.6°F-1.3°C 15.8°F-9.0°C 56% Calm Calm -- 30.00 in1015.9 mb 0.00 in0.0 mm 0.00 in/hr0.0 mm/hr 0.00 in0.0 mm
01:05 AM 29.6°F-1.3°C 15.8°F-9.0°C 56% Calm Calm -- 30.00 in1015.9 mb 0.00 in0.0 mm 0.00 in/hr0.0 mm/hr 0.00 in0.0 mm
01:04 AM 29.6°F-1.3°C 15.8°F-9.0°C 56% Calm Calm -- 30.00 in1015.9 mb 0.00 in0.0 mm 0.00 in/hr0.0 mm/hr 0.00 in0.0 mm
01:03 AM 29.6°F-1.3°C 15.8°F-9.0°C 56% Calm Calm -- 30.00 in1015.9 mb 0.00 in0.0 mm 0.00 in/hr0.0 mm/hr 0.00 in0.0 mm
01:02 AM 29.6°F-1.3°C 15.8°F-9.0°C 56% Calm Calm -- 30.00 in1015.9 mb 0.00 in0.0 mm 0.00 in/hr0.0 mm/hr 0.00 in0.0 mm
01:01 AM 29.6°F-1.3°C 15.4°F-9.2°C 55% Calm Calm -- 30.00 in1015.9 mb 0.00 in0.0 mm 0.00 in/hr0.0 mm/hr 0.00 in0.0 mm
01:00 AM 29.6°F-1.3°C 15.4°F-9.2°C 55% Calm Calm -- 30.00 in1015.9 mb 0.00 in0.0 mm 0.00 in/hr0.0 mm/hr 0.00 in0.0 mm
12:59 AM 29.6°F-1.3°C 15.4°F-9.2°C 55% Calm Calm -- 30.00 in1015.9 mb 0.00 in0.0 mm 0.00 in/hr0.0 mm/hr 0.00 in0.0 mm
12:58 AM 29.6°F-1.3°C 15.4°F-9.2°C 55% Calm Calm -- 30.00 in1015.9 mb 0.00 in0.0 mm 0.00 in/hr0.0 mm/hr 0.00 in0.0 mm
12:57 AM 29.6°F-1.3°C 15.4°F-9.2°C 55% Calm Calm -- 30.00 in1015.9 mb 0.00 in0.0 mm 0.00 in/hr0.0 mm/hr 0.00 in0.0 mm
12:56 AM 29.6°F-1.3°C 15.4°F-9.2°C 55% Calm Calm -- 30.00 in1015.9 mb 0.00 in0.0 mm 0.00 in/hr0.0 mm/hr 0.00 in0.0 mm
12:55 AM 29.6°F-1.3°C 15.4°F-9.2°C 55% Calm Calm -- 30.03 in1016.9 mb 0.00 in0.0 mm 0.00 in/hr0.0 mm/hr 0.00 in0.0 mm
12:54 AM 29.6°F-1.3°C 15.4°F-9.2°C 55% Calm Calm -- 30.03 in1016.9 mb 0.00 in0.0 mm 0.00 in/hr0.0 mm/hr 0.00 in0.0 mm
12:53 AM 29.6°F-1.3°C 15.4°F-9.2°C 55% Calm Calm 3.2 mph5.1 kmh 30.03 in1016.9 mb 0.00 in0.0 mm 0.00 in/hr0.0 mm/hr 0.00 in0.0 mm
12:52 AM 29.6°F-1.3°C 15.4°F-9.2°C 55% Calm Calm 3.8 mph6.1 kmh 30.03 in1016.9 mb 0.00 in0.0 mm 0.00 in/hr0.0 mm/hr 0.00 in0.0 mm
12:51 AM 29.6°F-1.3°C 15.4°F-9.2°C 55% Calm Calm 3.8 mph6.1 kmh 30.03 in1016.9 mb 0.00 in0.0 mm 0.00 in/hr0.0 mm/hr 0.00 in0.0 mm
12:50 AM 29.6°F-1.3°C 15.4°F-9.2°C 55% Calm Calm 3.8 mph6.1 kmh 30.03 in1016.9 mb 0.00 in0.0 mm 0.00 in/hr0.0 mm/hr 0.00 in0.0 mm
12:49 AM 29.6°F-1.3°C 15.4°F-9.2°C 55% Calm Calm 3.8 mph6.1 kmh 30.03 in1016.9 mb 0.00 in0.0 mm 0.00 in/hr0.0 mm/hr 0.00 in0.0 mm
12:48 AM 29.6°F-1.3°C 15.4°F-9.2°C 55% Calm Calm 3.8 mph6.1 kmh 30.03 in1016.9 mb 0.00 in0.0 mm 0.00 in/hr0.0 mm/hr 0.00 in0.0 mm
12:47 AM 29.6°F-1.3°C 15.4°F-9.2°C 55% Calm Calm 3.8 mph6.1 kmh 30.03 in1016.9 mb 0.00 in0.0 mm 0.00 in/hr0.0 mm/hr 0.00 in0.0 mm
12:46 AM 29.4°F-1.4°C 15.2°F-9.3°C 55% 3.8 mph ESE6.1 kmh ESE 3.8 mph6.1 kmh 30.03 in1016.9 mb 0.00 in0.0 mm 0.00 in/hr0.0 mm/hr 0.00 in0.0 mm
12:45 AM 29.4°F-1.4°C 15.2°F-9.3°C 55% Calm Calm -- 30.03 in1016.9 mb 0.00 in0.0 mm 0.00 in/hr0.0 mm/hr 0.00 in0.0 mm
12:44 AM 29.4°F-1.4°C 15.2°F-9.3°C 55% Calm Calm -- 30.03 in1016.9 mb 0.00 in0.0 mm 0.00 in/hr0.0 mm/hr 0.00 in0.0 mm
12:43 AM 29.4°F-1.4°C 15.2°F-9.3°C 55% Calm Calm -- 30.03 in1016.9 mb 0.00 in0.0 mm 0.00 in/hr0.0 mm/hr 0.00 in0.0 mm
12:42 AM 29.4°F-1.4°C 15.2°F-9.3°C 55% Calm Calm -- 30.03 in1016.9 mb 0.00 in0.0 mm 0.00 in/hr0.0 mm/hr 0.00 in0.0 mm
12:41 AM 29.4°F-1.4°C 15.2°F-9.3°C 55% Calm Calm -- 30.03 in1016.9 mb 0.00 in0.0 mm 0.00 in/hr0.0 mm/hr 0.00 in0.0 mm
12:40 AM 29.4°F-1.4°C 15.2°F-9.3°C 55% Calm Calm -- 30.03 in1016.9 mb 0.00 in0.0 mm 0.00 in/hr0.0 mm/hr 0.00 in0.0 mm
12:39 AM 29.4°F-1.4°C 15.2°F-9.3°C 55% Calm Calm -- 30.03 in1016.9 mb 0.00 in0.0 mm 0.00 in/hr0.0 mm/hr 0.00 in0.0 mm
12:38 AM 29.4°F-1.4°C 15.2°F-9.3°C 55% Calm Calm 4.3 mph6.9 kmh 30.03 in1016.9 mb 0.00 in0.0 mm 0.00 in/hr0.0 mm/hr 0.00 in0.0 mm
12:37 AM 29.4°F-1.4°C 15.2°F-9.3°C 55% Calm Calm 4.3 mph6.9 kmh 30.03 in1016.9 mb 0.00 in0.0 mm 0.00 in/hr0.0 mm/hr 0.00 in0.0 mm
12:36 AM 29.4°F-1.4°C 15.2°F-9.3°C 55% Calm Calm 4.3 mph6.9 kmh 30.03 in1016.9 mb 0.00 in0.0 mm 0.00 in/hr0.0 mm/hr 0.00 in0.0 mm
12:35 AM 29.4°F-1.4°C 15.2°F-9.3°C 55% Calm Calm 4.3 mph6.9 kmh 30.03 in1016.9 mb 0.00 in0.0 mm 0.00 in/hr0.0 mm/hr 0.00 in0.0 mm
12:34 AM 29.4°F-1.4°C 15.2°F-9.3°C 55% Calm Calm 4.3 mph6.9 kmh 30.03 in1016.9 mb 0.00 in0.0 mm 0.00 in/hr0.0 mm/hr 0.00 in0.0 mm
12:33 AM 29.4°F-1.4°C 15.2°F-9.3°C 55% Calm Calm 4.3 mph6.9 kmh 30.03 in1016.9 mb 0.00 in0.0 mm 0.00 in/hr0.0 mm/hr 0.00 in0.0 mm
12:32 AM 29.4°F-1.4°C 15.2°F-9.3°C 55% Calm Calm 4.3 mph6.9 kmh 30.03 in1016.9 mb 0.00 in0.0 mm 0.00 in/hr0.0 mm/hr 0.00 in0.0 mm
12:31 AM 29.4°F-1.4°C 15.2°F-9.3°C 55% 4.3 mph ESE6.9 kmh ESE 4.3 mph6.9 kmh 30.03 in1016.9 mb 0.00 in0.0 mm 0.00 in/hr0.0 mm/hr 0.00 in0.0 mm
12:30 AM 29.4°F-1.4°C 15.2°F-9.3°C 55% Calm Calm -- 30.03 in1016.9 mb 0.00 in0.0 mm 0.00 in/hr0.0 mm/hr 0.00 in0.0 mm
12:29 AM 29.4°F-1.4°C 15.2°F-9.3°C 55% Calm Calm -- 30.03 in1016.9 mb 0.00 in0.0 mm 0.00 in/hr0.0 mm/hr 0.00 in0.0 mm
12:28 AM 29.4°F-1.4°C 15.2°F-9.3°C 55% Calm Calm -- 30.03 in1016.9 mb 0.00 in0.0 mm 0.00 in/hr0.0 mm/hr 0.00 in0.0 mm
12:27 AM 29.4°F-1.4°C 15.2°F-9.3°C 55% Calm Calm -- 30.03 in1016.9 mb 0.00 in0.0 mm 0.00 in/hr0.0 mm/hr 0.00 in0.0 mm
12:26 AM 29.4°F-1.4°C 14.8°F-9.6°C 54% Calm Calm -- 30.03 in1016.9 mb 0.00 in0.0 mm 0.00 in/hr0.0 mm/hr 0.00 in0.0 mm
12:25 AM 29.4°F-1.4°C 14.8°F-9.6°C 54% Calm Calm -- 30.03 in1016.9 mb 0.00 in0.0 mm 0.00 in/hr0.0 mm/hr 0.00 in0.0 mm
12:24 AM 29.4°F-1.4°C 14.8°F-9.6°C 54% Calm Calm -- 30.03 in1016.9 mb 0.00 in0.0 mm 0.00 in/hr0.0 mm/hr 0.00 in0.0 mm
12:23 AM 29.4°F-1.4°C 14.8°F-9.6°C 54% Calm Calm -- 30.03 in1016.9 mb 0.00 in0.0 mm 0.00 in/hr0.0 mm/hr 0.00 in0.0 mm
12:22 AM 29.4°F-1.4°C 14.8°F-9.6°C 54% Calm Calm -- 30.03 in1016.9 mb 0.00 in0.0 mm 0.00 in/hr0.0 mm/hr 0.00 in0.0 mm
12:21 AM 29.4°F-1.4°C 14.8°F-9.6°C 54% Calm Calm -- 30.03 in1016.9 mb 0.00 in0.0 mm 0.00 in/hr0.0 mm/hr 0.00 in0.0 mm
12:20 AM 29.4°F-1.4°C 14.8°F-9.6°C 54% Calm Calm -- 30.03 in1016.9 mb 0.00 in0.0 mm 0.00 in/hr0.0 mm/hr 0.00 in0.0 mm
12:19 AM 29.4°F-1.4°C 14.8°F-9.6°C 54% Calm Calm -- 30.03 in1016.9 mb 0.00 in0.0 mm 0.00 in/hr0.0 mm/hr 0.00 in0.0 mm
12:18 AM 29.4°F-1.4°C 14.8°F-9.6°C 54% Calm Calm -- 30.03 in1016.9 mb 0.00 in0.0 mm 0.00 in/hr0.0 mm/hr 0.00 in0.0 mm
12:17 AM 29.4°F-1.4°C 14.8°F-9.6°C 54% Calm Calm -- 30.03 in1016.9 mb 0.00 in0.0 mm 0.00 in/hr0.0 mm/hr 0.00 in0.0 mm
12:16 AM 29.4°F-1.4°C 14.8°F-9.6°C 54% Calm Calm -- 30.03 in1016.9 mb 0.00 in0.0 mm 0.00 in/hr0.0 mm/hr 0.00 in0.0 mm
12:15 AM 29.4°F-1.4°C 14.8°F-9.6°C 54% Calm Calm -- 30.03 in1016.9 mb 0.00 in0.0 mm 0.00 in/hr0.0 mm/hr 0.00 in0.0 mm
12:14 AM 29.4°F-1.4°C 14.8°F-9.6°C 54% Calm Calm -- 30.03 in1016.9 mb 0.00 in0.0 mm 0.00 in/hr0.0 mm/hr 0.00 in0.0 mm
12:13 AM 29.4°F-1.4°C 14.8°F-9.6°C 54% Calm Calm -- 30.03 in1016.9 mb 0.00 in0.0 mm 0.00 in/hr0.0 mm/hr 0.00 in0.0 mm
12:12 AM 29.4°F-1.4°C 14.8°F-9.6°C 54% Calm Calm -- 30.03 in1016.9 mb 0.00 in0.0 mm 0.00 in/hr0.0 mm/hr 0.00 in0.0 mm
12:11 AM 29.4°F-1.4°C 14.8°F-9.6°C 54% Calm Calm -- 30.03 in1016.9 mb 0.00 in0.0 mm 0.00 in/hr0.0 mm/hr 0.00 in0.0 mm
12:10 AM 29.4°F-1.4°C 14.8°F-9.6°C 54% Calm Calm -- 30.03 in1016.9 mb 0.00 in0.0 mm 0.00 in/hr0.0 mm/hr 0.00 in0.0 mm
12:09 AM 29.4°F-1.4°C 14.8°F-9.6°C 54% Calm Calm -- 30.06 in1017.9 mb 0.00 in0.0 mm 0.00 in/hr0.0 mm/hr 0.00 in0.0 mm
12:08 AM 29.4°F-1.4°C 14.8°F-9.6°C 54% Calm Calm -- 30.06 in1017.9 mb 0.00 in0.0 mm 0.00 in/hr0.0 mm/hr 0.00 in0.0 mm
12:07 AM 29.4°F-1.4°C 14.8°F-9.6°C 54% Calm Calm -- 30.06 in1017.9 mb 0.00 in0.0 mm 0.00 in/hr0.0 mm/hr 0.00 in0.0 mm
12:06 AM 29.4°F-1.4°C 14.8°F-9.6°C 54% Calm Calm -- 30.06 in1017.9 mb 0.00 in0.0 mm 0.00 in/hr0.0 mm/hr 0.00 in0.0 mm
12:05 AM 29.4°F-1.4°C 14.8°F-9.6°C 54% Calm Calm -- 30.06 in1017.9 mb 0.00 in0.0 mm 0.00 in/hr0.0 mm/hr 0.00 in0.0 mm
12:04 AM 29.4°F-1.4°C 14.8°F-9.6°C 54% Calm Calm -- 30.06 in1017.9 mb 0.00 in0.0 mm 0.00 in/hr0.0 mm/hr 0.00 in0.0 mm
12:03 AM 29.4°F-1.4°C 14.8°F-9.6°C 54% Calm Calm -- 30.06 in1017.9 mb 0.00 in0.0 mm 0.00 in/hr0.0 mm/hr 0.00 in0.0 mm
12:02 AM 29.4°F-1.4°C 14.8°F-9.6°C 54% Calm Calm -- 30.06 in1017.9 mb 0.00 in0.0 mm 0.00 in/hr0.0 mm/hr 0.00 in0.0 mm
12:01 AM 29.4°F-1.4°C 14.8°F-9.6°C 54% Calm Calm -- 30.06 in1017.9 mb 0.00 in0.0 mm 0.00 in/hr0.0 mm/hr 0.00 in0.0 mm
12:00 AM 29.4°F-1.4°C 14.8°F-9.6°C 54% Calm Calm -- 30.06 in1017.9 mb 0.00 in0.0 mm 0.00 in/hr0.0 mm/hr 0.00 in0.0 mm